Observation data for Crane on 01/18/2019      Previous  Date  Next       Current Mesonet Observations  Soil Data  Daily Summary Page  Observations in Plain Language
KCR2 180600Z 19013KT 14/05 A3006 RMK A01 T01410045  RH  052%=      5-min Rain = 0
KCR2 180601Z 19012KT 14/05 A3006 RMK A01 T01410045  RH  052%=      5-min Rain = 0
KCR2 180602Z 19012KT 14/05 A3006 RMK A01 T01410045  RH  052%=      5-min Rain = 0
KCR2 180603Z 19014KT 14/05 A3006 RMK A01 T01410045  RH  052%=      5-min Rain = 0
KCR2 180604Z 19013KT 14/05 A3006 RMK A01 T01420045  RH  052%=      5-min Rain = 0
KCR2 180605Z 19013KT 14/04 A3006 RMK A01 T01420044  RH  052%=      5-min Rain = 0
KCR2 180606Z 19014KT 14/04 A3006 RMK A01 T01420044  RH  052%=      5-min Rain = 0
KCR2 180607Z 19013KT 14/04 A3006 RMK A01 T01430044  RH  051%=      5-min Rain = 0
KCR2 180608Z 19012KT 14/04 A3006 RMK A01 T01420044  RH  052%=      5-min Rain = 0
KCR2 180609Z 19014KT 14/04 A3006 RMK A01 T01410044  RH  052%=      5-min Rain = 0
KCR2 180610Z 19012KT 14/04 A3006 RMK A01 T01410044  RH  052%=      5-min Rain = 0
KCR2 180611Z 19013KT 14/04 A3006 RMK A01 T01410043  RH  052%=      5-min Rain = 0
KCR2 180612Z 19013KT 14/04 A3006 RMK A01 T01410042  RH  052%=      5-min Rain = 0
KCR2 180613Z 19014KT 14/04 A3006 RMK A01 T01410043  RH  051%=      5-min Rain = 0
KCR2 180614Z 19013KT 14/04 A3006 RMK A01 T01420042  RH  051%=      5-min Rain = 0
KCR2 180615Z 19012KT 14/04 A3006 RMK A01 T01420042  RH  051%=      5-min Rain = 0
KCR2 180616Z 19012KT 14/04 A3006 RMK A01 T01410042  RH  051%=      5-min Rain = 0
KCR2 180617Z 19012KT 14/04 A3006 RMK A01 T01410042  RH  051%=      5-min Rain = 0
KCR2 180618Z 19013KT 14/04 A3006 RMK A01 T01400041  RH  051%=      5-min Rain = 0
KCR2 180619Z 19014KT 14/04 A3006 RMK A01 T01400041  RH  051%=      5-min Rain = 0
KCR2 180620Z 19012KT 14/04 A3006 RMK A01 T01410042  RH  051%=      5-min Rain = 0
KCR2 180621Z 19013KT 14/04 A3006 RMK A01 T01410042  RH  051%=      5-min Rain = 0
KCR2 180622Z 19012KT 14/04 A3006 RMK A01 T01410041  RH  051%=      5-min Rain = 0
KCR2 180623Z 19012KT 14/04 A3006 RMK A01 T01390041  RH  052%=      5-min Rain = 0
KCR2 180624Z 19012KT 14/04 A3006 RMK A01 T01390041  RH  052%=      5-min Rain = 0
KCR2 180625Z 19012KT 14/04 A3006 RMK A01 T01390041  RH  052%=      5-min Rain = 0
KCR2 180626Z 19012KT 14/04 A3006 RMK A01 T01390041  RH  052%=      5-min Rain = 0
KCR2 180627Z 19011KT 14/04 A3006 RMK A01 T01400041  RH  051%=      5-min Rain = 0
KCR2 180628Z 19011KT 14/04 A3006 RMK A01 T01400041  RH  051%=      5-min Rain = 0
KCR2 180629Z 19011KT 14/04 A3006 RMK A01 T01400041  RH  051%=      5-min Rain = 0
KCR2 180630Z 19011KT 14/04 A3006 RMK A01 T01400041  RH  051%=      5-min Rain = 0
KCR2 180631Z 19012KT 14/04 A3006 RMK A01 T01400041  RH  051%=      5-min Rain = 0
KCR2 180632Z 19013KT 14/04 A3006 RMK A01 T01400041  RH  051%=      5-min Rain = 0
KCR2 180633Z 19012KT 14/04 A3006 RMK A01 T01400041  RH  051%=      5-min Rain = 0
KCR2 180634Z 19011KT 14/04 A3006 RMK A01 T01410041  RH  051%=      5-min Rain = 0
KCR2 180635Z 19012KT 14/04 A3006 RMK A01 T01400041  RH  051%=      5-min Rain = 0
KCR2 180636Z 19011KT 14/04 A3006 RMK A01 T01400041  RH  051%=      5-min Rain = 0
KCR2 180637Z 19010KT 14/04 A3006 RMK A01 T01400042  RH  052%=      5-min Rain = 0
KCR2 180638Z 19010KT 14/04 A3006 RMK A01 T01390042  RH  052%=      5-min Rain = 0
KCR2 180639Z 19011KT 14/04 A3006 RMK A01 T01380042  RH  052%=      5-min Rain = 0
KCR2 180640Z 19011KT 14/04 A3006 RMK A01 T01380042  RH  052%=      5-min Rain = 0
KCR2 180641Z 19011KT 14/04 A3006 RMK A01 T01380041  RH  052%=      5-min Rain = 0
KCR2 180642Z 19011KT 14/04 A3006 RMK A01 T01380042  RH  052%=      5-min Rain = 0
KCR2 180643Z 19012KT 14/04 A3005 RMK A01 T01380042  RH  052%=      5-min Rain = 0
KCR2 180644Z 19012KT 14/04 A3005 RMK A01 T01380042  RH  052%=      5-min Rain = 0
KCR2 180645Z 19012KT 14/04 A3005 RMK A01 T01380042  RH  052%=      5-min Rain = 0
KCR2 180646Z 19011KT 14/04 A3006 RMK A01 T01380042  RH  052%=      5-min Rain = 0
KCR2 180647Z 19012KT 14/04 A3006 RMK A01 T01380042  RH  052%=      5-min Rain = 0
KCR2 180648Z 19010KT 14/04 A3006 RMK A01 T01380042  RH  052%=      5-min Rain = 0
KCR2 180649Z 19011KT 14/04 A3005 RMK A01 T01370042  RH  053%=      5-min Rain = 0
KCR2 180650Z 19010KT 14/04 A3005 RMK A01 T01360042  RH  053%=      5-min Rain = 0
KCR2 180651Z 19011KT 14/04 A3005 RMK A01 T01360042  RH  053%=      5-min Rain = 0
KCR2 180652Z 19010KT 14/04 A3005 RMK A01 T01360043  RH  053%=      5-min Rain = 0
KCR2 180653Z 19010KT 14/04 A3005 RMK A01 T01350042  RH  053%=      5-min Rain = 0
KCR2 180654Z 19010KT 14/04 A3005 RMK A01 T01350042  RH  054%=      5-min Rain = 0
KCR2 180655Z 19010KT 14/04 A3005 RMK A01 T01350043  RH  053%=      5-min Rain = 0
KCR2 180656Z 19009KT 14/04 A3005 RMK A01 T01350043  RH  054%=      5-min Rain = 0
KCR2 180657Z 19010KT 13/04 A3005 RMK A01 T01340042  RH  054%=      5-min Rain = 0
KCR2 180658Z 19010KT 13/04 A3005 RMK A01 T01340042  RH  054%=      5-min Rain = 0
KCR2 180659Z 19011KT 14/04 A3005 RMK A01 T01350043  RH  054%=      5-min Rain = 0
KCR2 180700Z 19011KT 14/04 A3005 RMK A01 T01350043  RH  054%=      5-min Rain = 0
KCR2 180701Z 19010KT 14/04 A3005 RMK A01 T01360043  RH  053%=      5-min Rain = 0
KCR2 180702Z 19009KT 14/04 A3005 RMK A01 T01360043  RH  053%=      5-min Rain = 0
KCR2 180703Z 19010KT 14/04 A3005 RMK A01 T01350043  RH  053%=      5-min Rain = 0
KCR2 180704Z 19009KT 14/04 A3005 RMK A01 T01350043  RH  054%=      5-min Rain = 0
KCR2 180705Z 19009KT 14/04 A3005 RMK A01 T01350043  RH  054%=      5-min Rain = 0
KCR2 180706Z 19009KT 14/04 A3005 RMK A01 T01350043  RH  054%=      5-min Rain = 0
KCR2 180707Z 20009KT 14/04 A3005 RMK A01 T01350043  RH  054%=      5-min Rain = 0
KCR2 180708Z 20010KT 14/04 A3005 RMK A01 T01350043  RH  054%=      5-min Rain = 0
KCR2 180709Z 19009KT 13/04 A3005 RMK A01 T01340043  RH  054%=      5-min Rain = 0
KCR2 180710Z 19010KT 14/04 A3005 RMK A01 T01350043  RH  054%=      5-min Rain = 0
KCR2 180711Z 20011KT 14/04 A3005 RMK A01 T01350043  RH  054%=      5-min Rain = 0
KCR2 180712Z 19010KT 14/04 A3005 RMK A01 T01350043  RH  054%=      5-min Rain = 0
KCR2 180713Z 20011KT 14/04 A3005 RMK A01 T01350043  RH  054%=      5-min Rain = 0
KCR2 180714Z 19010KT 14/04 A3005 RMK A01 T01350043  RH  054%=      5-min Rain = 0
KCR2 180715Z 19011KT 14/04 A3004 RMK A01 T01350043  RH  054%=      5-min Rain = 0
KCR2 180716Z 19011KT 14/04 A3004 RMK A01 T01350043  RH  054%=      5-min Rain = 0
KCR2 180717Z 19012KT 14/04 A3004 RMK A01 T01350043  RH  054%=      5-min Rain = 0
KCR2 180718Z 19012KT 14/04 A3004 RMK A01 T01350043  RH  054%=      5-min Rain = 0
KCR2 180719Z 19012KT 14/04 A3004 RMK A01 T01350043  RH  054%=      5-min Rain = 0
KCR2 180720Z 19012KT 14/04 A3004 RMK A01 T01360044  RH  054%=      5-min Rain = 0
KCR2 180721Z 19012KT 14/04 A3004 RMK A01 T01360043  RH  053%=      5-min Rain = 0
KCR2 180722Z 19012KT 14/04 A3003 RMK A01 T01360043  RH  053%=      5-min Rain = 0
KCR2 180723Z 19012KT 14/04 A3003 RMK A01 T01350043  RH  054%=      5-min Rain = 0
KCR2 180724Z 19012KT 14/04 A3003 RMK A01 T01350043  RH  054%=      5-min Rain = 0
KCR2 180725Z 19012KT 14/04 A3003 RMK A01 T01360043  RH  053%=      5-min Rain = 0
KCR2 180726Z 19011KT 14/04 A3003 RMK A01 T01360043  RH  053%=      5-min Rain = 0
KCR2 180727Z 19013KT 14/04 A3003 RMK A01 T01350043  RH  054%=      5-min Rain = 0
KCR2 180728Z 19012KT 14/04 A3003 RMK A01 T01360043  RH  053%=      5-min Rain = 0
KCR2 180729Z 19013KT 14/04 A3003 RMK A01 T01360043  RH  053%=      5-min Rain = 0
KCR2 180730Z 19012KT 14/04 A3003 RMK A01 T01360043  RH  053%=      5-min Rain = 0
KCR2 180731Z 19012KT 14/04 A3003 RMK A01 T01360043  RH  053%=      5-min Rain = 0
KCR2 180732Z 19012KT 14/04 A3003 RMK A01 T01360043  RH  053%=      5-min Rain = 0
KCR2 180733Z 19013KT 14/04 A3003 RMK A01 T01360043  RH  054%=      5-min Rain = 0
KCR2 180734Z 19013KT 14/04 A3003 RMK A01 T01360044  RH  054%=      5-min Rain = 0
KCR2 180735Z 19014KT 14/04 A3002 RMK A01 T01360044  RH  054%=      5-min Rain = 0
KCR2 180736Z 19013KT 14/04 A3002 RMK A01 T01370044  RH  053%=      5-min Rain = 0
KCR2 180737Z 19013KT 14/04 A3002 RMK A01 T01370044  RH  053%=      5-min Rain = 0
KCR2 180738Z 19013KT 14/04 A3002 RMK A01 T01370044  RH  053%=      5-min Rain = 0
KCR2 180739Z 19011KT 14/04 A3002 RMK A01 T01370044  RH  053%=      5-min Rain = 0
KCR2 180740Z 19013KT 14/04 A3002 RMK A01 T01360044  RH  054%=      5-min Rain = 0
KCR2 180741Z 19013KT 14/04 A3002 RMK A01 T01350044  RH  054%=      5-min Rain = 0
KCR2 180742Z 19013KT 14/04 A3002 RMK A01 T01350044  RH  054%=      5-min Rain = 0
KCR2 180743Z 19014KT 14/04 A3002 RMK A01 T01360044  RH  054%=      5-min Rain = 0
KCR2 180744Z 19013KT 14/04 A3002 RMK A01 T01370044  RH  054%=      5-min Rain = 0
KCR2 180745Z 19013KT 14/04 A3002 RMK A01 T01370044  RH  053%=      5-min Rain = 0
KCR2 180746Z 19013KT 14/04 A3002 RMK A01 T01380044  RH  053%=      5-min Rain = 0
KCR2 180747Z 19012KT 14/04 A3002 RMK A01 T01380044  RH  053%=      5-min Rain = 0
KCR2 180748Z 19013KT 14/04 A3002 RMK A01 T01370044  RH  053%=      5-min Rain = 0
KCR2 180749Z 19012KT 14/04 A3002 RMK A01 T01370044  RH  053%=      5-min Rain = 0
KCR2 180750Z 19013KT 14/04 A3002 RMK A01 T01360044  RH  054%=      5-min Rain = 0
KCR2 180751Z 19013KT 14/04 A3002 RMK A01 T01360044  RH  054%=      5-min Rain = 0
KCR2 180752Z 19013KT 14/05 A3002 RMK A01 T01370045  RH  053%=      5-min Rain = 0
KCR2 180753Z 19012KT 14/04 A3003 RMK A01 T01370044  RH  053%=      5-min Rain = 0
KCR2 180754Z 19013KT 14/05 A3002 RMK A01 T01370045  RH  054%=      5-min Rain = 0
KCR2 180755Z 20013KT 14/05 A3002 RMK A01 T01370045  RH  054%=      5-min Rain = 0
KCR2 180756Z 19011KT 14/05 A3003 RMK A01 T01370045  RH  054%=      5-min Rain = 0
KCR2 180757Z 19012KT 14/05 A3003 RMK A01 T01360045  RH  054%=      5-min Rain = 0
KCR2 180758Z 19012KT 14/05 A3003 RMK A01 T01360045  RH  054%=      5-min Rain = 0
KCR2 180759Z 19012KT 14/05 A3003 RMK A01 T01360045  RH  054%=      5-min Rain = 0
KCR2 180800Z 19012KT 14/05 A3003 RMK A01 T01360046  RH  054%=      5-min Rain = 0
KCR2 180801Z 19014KT 14/05 A3003 RMK A01 T01360046  RH  054%=      5-min Rain = 0
KCR2 180802Z 19013KT 14/05 A3003 RMK A01 T01370046  RH  054%=      5-min Rain = 0
KCR2 180803Z 19013KT 14/05 A3003 RMK A01 T01370046  RH  054%=      5-min Rain = 0
KCR2 180804Z 19013KT 14/05 A3003 RMK A01 T01360046  RH  054%=      5-min Rain = 0
KCR2 180805Z 19012KT 14/05 A3002 RMK A01 T01370047  RH  054%=      5-min Rain = 0
KCR2 180806Z 19012KT 14/05 A3002 RMK A01 T01370047  RH  055%=      5-min Rain = 0
KCR2 180807Z 19014KT 14/05 A3002 RMK A01 T01360047  RH  055%=      5-min Rain = 0
KCR2 180808Z 19014KT 14/05 A3002 RMK A01 T01360047  RH  055%=      5-min Rain = 0
KCR2 180809Z 19012KT 14/05 A3002 RMK A01 T01370048  RH  055%=      5-min Rain = 0
KCR2 180810Z 19012KT 14/05 A3002 RMK A01 T01370048  RH  055%=      5-min Rain = 0
KCR2 180811Z 19012KT 14/05 A3002 RMK A01 T01370049  RH  055%=      5-min Rain = 0
KCR2 180812Z 19012KT 14/05 A3002 RMK A01 T01380049  RH  055%=      5-min Rain = 0
KCR2 180813Z 19013KT 14/05 A3002 RMK A01 T01370049  RH  055%=      5-min Rain = 0
KCR2 180814Z 19012KT 14/05 A3002 RMK A01 T01370050  RH  055%=      5-min Rain = 0
KCR2 180815Z 19012KT 14/05 A3002 RMK A01 T01370050  RH  056%=      5-min Rain = 0
KCR2 180816Z 20012KT 14/05 A3002 RMK A01 T01370051  RH  056%=      5-min Rain = 0
KCR2 180817Z 20013KT 14/05 A3002 RMK A01 T01360051  RH  056%=      5-min Rain = 0
KCR2 180818Z 19012KT 14/05 A3002 RMK A01 T01370051  RH  056%=      5-min Rain = 0
KCR2 180819Z 19012KT 14/05 A3002 RMK A01 T01370051  RH  056%=      5-min Rain = 0
KCR2 180820Z 19013KT 14/05 A3002 RMK A01 T01370051  RH  056%=      5-min Rain = 0
KCR2 180821Z 19012KT 14/05 A3002 RMK A01 T01370052  RH  056%=      5-min Rain = 0
KCR2 180822Z 19012KT 14/05 A3002 RMK A01 T01370052  RH  056%=      5-min Rain = 0
KCR2 180823Z 20011KT 14/05 A3002 RMK A01 T01370052  RH  056%=      5-min Rain = 0
KCR2 180824Z 20013KT 14/05 A3002 RMK A01 T01360052  RH  057%=      5-min Rain = 0
KCR2 180825Z 20012KT 14/05 A3002 RMK A01 T01360051  RH  057%=      5-min Rain = 0
KCR2 180826Z 20012KT 14/05 A3002 RMK A01 T01360052  RH  057%=      5-min Rain = 0
KCR2 180827Z 19013KT 14/05 A3002 RMK A01 T01370052  RH  056%=      5-min Rain = 0
KCR2 180828Z 20011KT 14/05 A3002 RMK A01 T01380052  RH  056%=      5-min Rain = 0
KCR2 180829Z 19011KT 14/05 A3002 RMK A01 T01380052  RH  056%=      5-min Rain = 0
KCR2 180830Z 20011KT 14/05 A3002 RMK A01 T01370051  RH  056%=      5-min Rain = 0
KCR2 180831Z 19011KT 14/05 A3002 RMK A01 T01370052  RH  056%=      5-min Rain = 0
KCR2 180832Z 20010KT 14/05 A3002 RMK A01 T01370051  RH  056%=      5-min Rain = 0
KCR2 180833Z 19009KT 14/05 A3002 RMK A01 T01360051  RH  056%=      5-min Rain = 0
KCR2 180834Z 20011KT 14/05 A3002 RMK A01 T01360051  RH  056%=      5-min Rain = 0
KCR2 180835Z 19009KT 14/05 A3002 RMK A01 T01360051  RH  056%=      5-min Rain = 0
KCR2 180836Z 20010KT 13/05 A3002 RMK A01 T01340050  RH  057%=      5-min Rain = 0
KCR2 180837Z 20010KT 14/05 A3002 RMK A01 T01350050  RH  057%=      5-min Rain = 0
KCR2 180838Z 20010KT 13/05 A3002 RMK A01 T01340050  RH  056%=      5-min Rain = 0
KCR2 180839Z 20010KT 14/05 A3002 RMK A01 T01350050  RH  056%=      5-min Rain = 0
KCR2 180840Z 20009KT 13/05 A3002 RMK A01 T01340049  RH  056%=      5-min Rain = 0
KCR2 180841Z 20009KT 13/05 A3002 RMK A01 T01340049  RH  056%=      5-min Rain = 0
KCR2 180842Z 20010KT 13/05 A3002 RMK A01 T01340049  RH  056%=      5-min Rain = 0
KCR2 180843Z 20010KT 13/05 A3002 RMK A01 T01330048  RH  056%=      5-min Rain = 0
KCR2 180844Z 20010KT 13/05 A3002 RMK A01 T01330048  RH  056%=      5-min Rain = 0
KCR2 180845Z 19011KT 13/05 A3002 RMK A01 T01330048  RH  056%=      5-min Rain = 0
KCR2 180846Z 19010KT 13/05 A3002 RMK A01 T01340048  RH  056%=      5-min Rain = 0
KCR2 180847Z 20009KT 13/05 A3002 RMK A01 T01340048  RH  056%=      5-min Rain = 0
KCR2 180848Z 20010KT 13/05 A3002 RMK A01 T01340048  RH  056%=      5-min Rain = 0
KCR2 180849Z 20010KT 13/05 A3002 RMK A01 T01340048  RH  056%=      5-min Rain = 0
KCR2 180850Z 20010KT 13/05 A3002 RMK A01 T01340048  RH  056%=      5-min Rain = 0
KCR2 180851Z 19010KT 13/05 A3002 RMK A01 T01340048  RH  056%=      5-min Rain = 0
KCR2 180852Z 19009KT 13/05 A3002 RMK A01 T01330048  RH  056%=      5-min Rain = 0
KCR2 180853Z 20010KT 13/05 A3002 RMK A01 T01330048  RH  056%=      5-min Rain = 0
KCR2 180854Z 19010KT 13/05 A3002 RMK A01 T01320048  RH  057%=      5-min Rain = 0
KCR2 180855Z 20009KT 13/05 A3002 RMK A01 T01320048  RH  057%=      5-min Rain = 0
KCR2 180856Z 20010KT 13/05 A3002 RMK A01 T01310048  RH  057%=      5-min Rain = 0
KCR2 180857Z 20010KT 13/05 A3002 RMK A01 T01310048  RH  057%=      5-min Rain = 0
KCR2 180858Z 20009KT 13/05 A3002 RMK A01 T01310048  RH  057%=      5-min Rain = 0
KCR2 180859Z 20009KT 13/05 A3002 RMK A01 T01310049  RH  057%=      5-min Rain = 0
KCR2 180900Z 20009KT 13/05 A3002 RMK A01 T01300049  RH  058%=      5-min Rain = 0
KCR2 180901Z 20009KT 13/05 A3002 RMK A01 T01310049  RH  057%=      5-min Rain = 0
KCR2 180902Z 20009KT 13/05 A3002 RMK A01 T01310049  RH  057%=      5-min Rain = 0
KCR2 180903Z 20008KT 13/05 A3002 RMK A01 T01310049  RH  057%=      5-min Rain = 0
KCR2 180904Z 20009KT 13/05 A3002 RMK A01 T01310049  RH  057%=      5-min Rain = 0
KCR2 180905Z 20008KT 13/05 A3002 RMK A01 T01310049  RH  058%=      5-min Rain = 0
KCR2 180906Z 20008KT 13/05 A3001 RMK A01 T01300050  RH  058%=      5-min Rain = 0
KCR2 180907Z 20009KT 13/05 A3001 RMK A01 T01300050  RH  058%=      5-min Rain = 0
KCR2 180908Z 20009KT 13/05 A3001 RMK A01 T01290050  RH  058%=      5-min Rain = 0
KCR2 180909Z 20008KT 13/05 A3001 RMK A01 T01300050  RH  059%=      5-min Rain = 0
KCR2 180910Z 20007KT 13/05 A3001 RMK A01 T01290050  RH  059%=      5-min Rain = 0
KCR2 180911Z 20008KT 13/05 A3001 RMK A01 T01280050  RH  059%=      5-min Rain = 0
KCR2 180912Z 20008KT 13/05 A3001 RMK A01 T01280050  RH  059%=      5-min Rain = 0
KCR2 180913Z 20008KT 13/05 A3001 RMK A01 T01270050  RH  059%=      5-min Rain = 0
KCR2 180914Z 20007KT 13/05 A3001 RMK A01 T01270051  RH  060%=      5-min Rain = 0
KCR2 180915Z 20008KT 13/05 A3001 RMK A01 T01270050  RH  060%=      5-min Rain = 0
KCR2 180916Z 20008KT 13/05 A3001 RMK A01 T01270051  RH  060%=      5-min Rain = 0
KCR2 180917Z 20008KT 13/05 A3001 RMK A01 T01270050  RH  060%=      5-min Rain = 0
KCR2 180918Z 20007KT 13/05 A3001 RMK A01 T01260051  RH  060%=      5-min Rain = 0
KCR2 180919Z 20008KT 13/05 A3001 RMK A01 T01260051  RH  060%=      5-min Rain = 0
KCR2 180920Z 20008KT 13/05 A3001 RMK A01 T01260051  RH  060%=      5-min Rain = 0
KCR2 180921Z 21007KT 13/05 A3001 RMK A01 T01260051  RH  060%=      5-min Rain = 0
KCR2 180922Z 21007KT 13/05 A3001 RMK A01 T01260051  RH  060%=      5-min Rain = 0
KCR2 180923Z 21007KT 13/05 A3001 RMK A01 T01260051  RH  060%=      5-min Rain = 0
KCR2 180924Z 21007KT 13/05 A3001 RMK A01 T01250051  RH  061%=      5-min Rain = 0
KCR2 180925Z 21007KT 13/05 A3001 RMK A01 T01250051  RH  061%=      5-min Rain = 0
KCR2 180926Z 21006KT 12/05 A3001 RMK A01 T01240051  RH  061%=      5-min Rain = 0
KCR2 180927Z 21006KT 12/05 A3001 RMK A01 T01240051  RH  061%=      5-min Rain = 0
KCR2 180928Z 22006KT 12/05 A3001 RMK A01 T01230051  RH  061%=      5-min Rain = 0
KCR2 180929Z 21006KT 12/05 A3001 RMK A01 T01220051  RH  062%=      5-min Rain = 0
KCR2 180930Z 22006KT 12/05 A3001 RMK A01 T01220051  RH  062%=      5-min Rain = 0
KCR2 180931Z 21006KT 12/05 A3001 RMK A01 T01210051  RH  062%=      5-min Rain = 0
KCR2 180932Z 22006KT 12/05 A3001 RMK A01 T01210051  RH  062%=      5-min Rain = 0
KCR2 180933Z 22006KT 12/05 A3001 RMK A01 T01210052  RH  062%=      5-min Rain = 0
KCR2 180934Z 22005KT 12/05 A3001 RMK A01 T01210051  RH  062%=      5-min Rain = 0
KCR2 180935Z 22006KT 12/05 A3001 RMK A01 T01210051  RH  062%=      5-min Rain = 0
KCR2 180936Z 22005KT 12/05 A3001 RMK A01 T01210052  RH  063%=      5-min Rain = 0
KCR2 180937Z 22005KT 12/05 A3001 RMK A01 T01200052  RH  063%=      5-min Rain = 0
KCR2 180938Z 22005KT 12/05 A3001 RMK A01 T01190051  RH  063%=      5-min Rain = 0
KCR2 180939Z 22005KT 12/05 A3001 RMK A01 T01180051  RH  063%=      5-min Rain = 0
KCR2 180940Z 22005KT 12/05 A3001 RMK A01 T01170051  RH  064%=      5-min Rain = 0
KCR2 180941Z 22005KT 12/05 A3001 RMK A01 T01170051  RH  064%=      5-min Rain = 0
KCR2 180942Z 22005KT 12/05 A3001 RMK A01 T01180051  RH  064%=      5-min Rain = 0
KCR2 180943Z 22004KT 12/05 A3001 RMK A01 T01190052  RH  064%=      5-min Rain = 0
KCR2 180944Z 22004KT 12/05 A3001 RMK A01 T01190052  RH  063%=      5-min Rain = 0
KCR2 180945Z 21005KT 12/05 A30 RMK A01 T01190052  RH  063%=      5-min Rain = 0
KCR2 180946Z 22005KT 12/05 A30 RMK A01 T01170051  RH  064%=      5-min Rain = 0
KCR2 180947Z 22004KT 12/05 A30 RMK A01 T01160050  RH  064%=      5-min Rain = 0
KCR2 180948Z 22004KT 12/05 A30 RMK A01 T01150050  RH  064%=      5-min Rain = 0
KCR2 180949Z 22004KT 12/05 A30 RMK A01 T01150051  RH  065%=      5-min Rain = 0
KCR2 180950Z 22004KT 12/05 A30 RMK A01 T01150051  RH  064%=      5-min Rain = 0
KCR2 180951Z 23004KT 12/05 A30 RMK A01 T01160051  RH  064%=      5-min Rain = 0
KCR2 180952Z 23004KT 12/05 A30 RMK A01 T01160051  RH  064%=      5-min Rain = 0
KCR2 180953Z 22004KT 12/05 A30 RMK A01 T01150050  RH  064%=      5-min Rain = 0
KCR2 180954Z 22004KT 12/05 A30 RMK A01 T01150050  RH  064%=      5-min Rain = 0
KCR2 180955Z 22004KT 12/05 A30 RMK A01 T01150050  RH  064%=      5-min Rain = 0
KCR2 180956Z 21004KT 11/05 A30 RMK A01 T01140050  RH  065%=      5-min Rain = 0
KCR2 180957Z 21005KT 11/05 A30 RMK A01 T01140050  RH  065%=      5-min Rain = 0
KCR2 180958Z 22005KT 11/05 A30 RMK A01 T01140050  RH  065%=      5-min Rain = 0
KCR2 180959Z 22005KT 11/05 A30 RMK A01 T01140050  RH  065%=      5-min Rain = 0
KCR2 181000Z 22004KT 11/05 A30 RMK A01 T01130050  RH  065%=      5-min Rain = 0
KCR2 181001Z 21005KT 11/05 A30 RMK A01 T01110049  RH  065%=      5-min Rain = 0
KCR2 181002Z 22005KT 11/05 A30 RMK A01 T01110049  RH  066%=      5-min Rain = 0
KCR2 181003Z 22005KT 11/05 A30 RMK A01 T01100050  RH  066%=      5-min Rain = 0
KCR2 181004Z 22005KT 11/05 A30 RMK A01 T01090050  RH  067%=      5-min Rain = 0
KCR2 181005Z 22005KT 11/05 A30 RMK A01 T01100050  RH  067%=      5-min Rain = 0
KCR2 181006Z 22004KT 11/05 A2999 RMK A01 T01090050  RH  067%=      5-min Rain = 0
KCR2 181007Z 22004KT 11/05 A2999 RMK A01 T01090051  RH  067%=      5-min Rain = 0
KCR2 181008Z 23004KT 11/05 A2999 RMK A01 T01090050  RH  067%=      5-min Rain = 0
KCR2 181009Z 24003KT 11/05 A2999 RMK A01 T01090049  RH  067%=      5-min Rain = 0
KCR2 181010Z 24003KT 11/05 A2999 RMK A01 T01070047  RH  066%=      5-min Rain = 0
KCR2 181011Z 23002KT 11/05 A2999 RMK A01 T01050046  RH  067%=      5-min Rain = 0
KCR2 181012Z 24002KT 10/05 A2999 RMK A01 T01040046  RH  067%=      5-min Rain = 0
KCR2 181013Z 25001KT 10/05 A2999 RMK A01 T01020045  RH  068%=      5-min Rain = 0
KCR2 181014Z 28001KT 10/05 A2999 RMK A01 T01010045  RH  068%=      5-min Rain = 0
KCR2 181015Z 27001KT 10/05 A2999 RMK A01 T00990045  RH  069%=      5-min Rain = 0
KCR2 181016Z 27001KT 10/05 A2999 RMK A01 T00990046  RH  070%=      5-min Rain = 0
KCR2 181017Z 26001KT 10/05 A2999 RMK A01 T00990046  RH  069%=      5-min Rain = 0
KCR2 181018Z 25001KT 10/05 A2999 RMK A01 T01000047  RH  070%=      5-min Rain = 0
KCR2 181019Z 27001KT 10/05 A2999 RMK A01 T01000047  RH  069%=      5-min Rain = 0
KCR2 181020Z 28001KT 10/05 A2999 RMK A01 T01010047  RH  069%=      5-min Rain = 0
KCR2 181021Z 29001KT 10/05 A2999 RMK A01 T01020047  RH  069%=      5-min Rain = 0
KCR2 181022Z 31002KT 10/05 A2999 RMK A01 T01020046  RH  068%=      5-min Rain = 0
KCR2 181023Z 32002KT 10/05 A2999 RMK A01 T01000046  RH  069%=      5-min Rain = 0
KCR2 181024Z 32002KT 10/04 A2999 RMK A01 T00980044  RH  069%=      5-min Rain = 0
KCR2 181025Z 33002KT 10/04 A2999 RMK A01 T00960044  RH  070%=      5-min Rain = 0
KCR2 181026Z 34003KT 10/04 A2999 RMK A01 T00950043  RH  070%=      5-min Rain = 0
KCR2 181027Z 34003KT 09/04 A2999 RMK A01 T00920041  RH  071%=      5-min Rain = 0
KCR2 181028Z 35003KT 09/04 A2999 RMK A01 T00890041  RH  072%=      5-min Rain = 0
KCR2 181029Z 35002KT 09/04 A2999 RMK A01 T00880042  RH  073%=      5-min Rain = 0
KCR2 181030Z 34002KT 09/04 A2999 RMK A01 T00860040  RH  073%=      5-min Rain = 0
KCR2 181031Z 34003KT 09/04 A2999 RMK A01 T00850041  RH  074%=      5-min Rain = 0
KCR2 181032Z 34002KT 08/04 A2998 RMK A01 T00840041  RH  074%=      5-min Rain = 0
KCR2 181033Z 33001KT 08/04 A2998 RMK A01 T00840041  RH  074%=      5-min Rain = 0
KCR2 181034Z 32002KT 08/04 A2998 RMK A01 T00840042  RH  075%=      5-min Rain = 0
KCR2 181035Z 32002KT 09/04 A2998 RMK A01 T00850043  RH  075%=      5-min Rain = 0
KCR2 181036Z 32002KT 09/04 A2998 RMK A01 T00870044  RH  074%=      5-min Rain = 0
KCR2 181037Z 30001KT 09/04 A2998 RMK A01 T00880043  RH  073%=      5-min Rain = 0
KCR2 181038Z 29001KT 09/04 A2998 RMK A01 T00880042  RH  073%=      5-min Rain = 0
KCR2 181039Z 30002KT 09/04 A2998 RMK A01 T00880043  RH  073%=      5-min Rain = 0
KCR2 181040Z 30002KT 09/04 A2998 RMK A01 T00880044  RH  074%=      5-min Rain = 0
KCR2 181041Z 29002KT 09/04 A2998 RMK A01 T00890042  RH  073%=      5-min Rain = 0
KCR2 181042Z 30002KT 09/04 A2998 RMK A01 T00870039  RH  072%=      5-min Rain = 0
KCR2 181043Z 29003KT 09/04 A2998 RMK A01 T00850040  RH  074%=      5-min Rain = 0
KCR2 181044Z 27003KT 08/04 A2998 RMK A01 T00840041  RH  074%=      5-min Rain = 0
KCR2 181045Z 25002KT 08/04 A2998 RMK A01 T00840041  RH  074%=      5-min Rain = 0
KCR2 181046Z 23002KT 09/04 A2998 RMK A01 T00850044  RH  075%=      5-min Rain = 0
KCR2 181047Z 24003KT 09/05 A2998 RMK A01 T00880048  RH  076%=      5-min Rain = 0
KCR2 181048Z 28003KT 09/05 A2998 RMK A01 T00910047  RH  074%=      5-min Rain = 0
KCR2 181049Z 28003KT 09/04 A2998 RMK A01 T00910043  RH  072%=      5-min Rain = 0
KCR2 181050Z 28002KT 09/04 A2998 RMK A01 T00900043  RH  072%=      5-min Rain = 0
KCR2 181051Z 27002KT 09/04 A2998 RMK A01 T00900044  RH  073%=      5-min Rain = 0
KCR2 181052Z 28003KT 09/04 A2998 RMK A01 T00890043  RH  073%=      5-min Rain = 0
KCR2 181053Z 29003KT 09/04 A2998 RMK A01 T00880040  RH  072%=      5-min Rain = 0
KCR2 181054Z 28003KT 09/04 A2998 RMK A01 T00850037  RH  072%=      5-min Rain = 0
KCR2 181055Z 27002KT 08/04 A2998 RMK A01 T00830038  RH  073%=      5-min Rain = 0
KCR2 181056Z 27002KT 08/04 A2998 RMK A01 T00820038  RH  074%=      5-min Rain = 0
KCR2 181057Z 27003KT 08/04 A2998 RMK A01 T00820040  RH  075%=      5-min Rain = 0
KCR2 181058Z 27003KT 08/04 A2998 RMK A01 T00810040  RH  075%=      5-min Rain = 0
KCR2 181059Z 27003KT 08/04 A2997 RMK A01 T00810041  RH  076%=      5-min Rain = 0
KCR2 181100Z 25003KT 08/04 A2997 RMK A01 T00810041  RH  076%=      5-min Rain = 0
KCR2 181101Z 25002KT 08/04 A2997 RMK A01 T00810041  RH  076%=      5-min Rain = 0
KCR2 181102Z 26002KT 08/04 A2997 RMK A01 T00810041  RH  076%=      5-min Rain = 0
KCR2 181103Z 28002KT 08/04 A2997 RMK A01 T00820041  RH  076%=      5-min Rain = 0
KCR2 181104Z 29003KT 08/04 A2997 RMK A01 T00810041  RH  076%=      5-min Rain = 0
KCR2 181105Z 29002KT 08/04 A2997 RMK A01 T00810042  RH  076%=      5-min Rain = 0
KCR2 181106Z 30003KT 08/04 A2997 RMK A01 T00810042  RH  076%=      5-min Rain = 0
KCR2 181107Z 32004KT 08/04 A2997 RMK A01 T00810040  RH  075%=      5-min Rain = 0
KCR2 181108Z 33005KT 08/04 A2997 RMK A01 T00780036  RH  075%=      5-min Rain = 0
KCR2 181109Z 33004KT 08/04 A2997 RMK A01 T00750036  RH  076%=      5-min Rain = 0
KCR2 181110Z 32004KT 07/04 A2997 RMK A01 T00730036  RH  077%=      5-min Rain = 0
KCR2 181111Z 32003KT 07/04 A2997 RMK A01 T00720036  RH  078%=      5-min Rain = 0
KCR2 181112Z 31002KT 07/04 A2997 RMK A01 T00720038  RH  079%=      5-min Rain = 0
KCR2 181113Z 31002KT 07/04 A2997 RMK A01 T00730038  RH  079%=      5-min Rain = 0
KCR2 181114Z 31002KT 07/04 A2997 RMK A01 T00740039  RH  079%=      5-min Rain = 0
KCR2 181115Z 31003KT 08/04 A2997 RMK A01 T00750039  RH  078%=      5-min Rain = 0
KCR2 181116Z 31002KT 08/04 A2997 RMK A01 T00750037  RH  077%=      5-min Rain = 0
KCR2 181117Z 31002KT 07/04 A2997 RMK A01 T00740037  RH  077%=      5-min Rain = 0
KCR2 181118Z 31001KT 07/04 A2997 RMK A01 T00730036  RH  077%=      5-min Rain = 0
KCR2 181119Z 33000KT 07/04 A2996 RMK A01 T00710035  RH  078%=      5-min Rain = 0
KCR2 181120Z 34001KT 07/04 A2996 RMK A01 T00700035  RH  079%=      5-min Rain = 0
KCR2 181121Z 00000KT 07/04 A2996 RMK A01 T00690036  RH  079%=      5-min Rain = 0
KCR2 181122Z 32000KT 07/04 A2996 RMK A01 T00700037  RH  080%=      5-min Rain = 0
KCR2 181123Z 32000KT 07/04 A2996 RMK A01 T00700038  RH  080%=      5-min Rain = 0
KCR2 181124Z 00000KT 07/04 A2996 RMK A01 T00710039  RH  080%=      5-min Rain = 0
KCR2 181125Z 01000KT 07/04 A2996 RMK A01 T00730041  RH  080%=      5-min Rain = 0
KCR2 181126Z 03001KT 08/04 A2996 RMK A01 T00750042  RH  080%=      5-min Rain = 0
KCR2 181127Z 02001KT 08/04 A2996 RMK A01 T00760042  RH  079%=      5-min Rain = 0
KCR2 181128Z 01001KT 08/04 A2996 RMK A01 T00770041  RH  078%=      5-min Rain = 0
KCR2 181129Z 02001KT 08/04 A2996 RMK A01 T00750038  RH  077%=      5-min Rain = 0
KCR2 181130Z 02001KT 07/04 A2996 RMK A01 T00730036  RH  077%=      5-min Rain = 0
KCR2 181131Z 06001KT 07/04 A2996 RMK A01 T00720035  RH  078%=      5-min Rain = 0
KCR2 181132Z 07001KT 07/04 A2996 RMK A01 T00700037  RH  079%=      5-min Rain = 0
KCR2 181133Z 08000KT 07/04 A2995 RMK A01 T00700037  RH  080%=      5-min Rain = 0
KCR2 181134Z 12001KT 07/04 A2995 RMK A01 T00700037  RH  080%=      5-min Rain = 0
KCR2 181135Z 14002KT 07/04 A2995 RMK A01 T00700038  RH  080%=      5-min Rain = 0
KCR2 181136Z 15001KT 07/04 A2995 RMK A01 T00700039  RH  080%=      5-min Rain = 0
KCR2 181137Z 15002KT 07/04 A2995 RMK A01 T00710038  RH  080%=      5-min Rain = 0
KCR2 181138Z 16001KT 07/04 A2995 RMK A01 T00700037  RH  079%=      5-min Rain = 0
KCR2 181139Z 15001KT 07/04 A2995 RMK A01 T00690037  RH  080%=      5-min Rain = 0
KCR2 181140Z 16002KT 07/04 A2995 RMK A01 T00690038  RH  080%=      5-min Rain = 0
KCR2 181141Z 17002KT 07/04 A2995 RMK A01 T00690038  RH  080%=      5-min Rain = 0
KCR2 181142Z 17002KT 07/04 A2995 RMK A01 T00690037  RH  080%=      5-min Rain = 0
KCR2 181143Z 18001KT 07/04 A2995 RMK A01 T00680035  RH  079%=      5-min Rain = 0
KCR2 181144Z 19001KT 07/03 A2995 RMK A01 T00660034  RH  080%=      5-min Rain = 0
KCR2 181145Z 20001KT 07/04 A2995 RMK A01 T00660035  RH  081%=      5-min Rain = 0
KCR2 181146Z 18001KT 06/03 A2995 RMK A01 T00640033  RH  081%=      5-min Rain = 0
KCR2 181147Z 16001KT 06/03 A2995 RMK A01 T00630034  RH  082%=      5-min Rain = 0
KCR2 181148Z 17001KT 06/04 A2995 RMK A01 T00630036  RH  083%=      5-min Rain = 0
KCR2 181149Z 15001KT 06/04 A2995 RMK A01 T00640036  RH  083%=      5-min Rain = 0
KCR2 181150Z 14001KT 07/04 A2995 RMK A01 T00650036  RH  082%=      5-min Rain = 0
KCR2 181151Z 15002KT 07/04 A2995 RMK A01 T00660037  RH  082%=      5-min Rain = 0
KCR2 181152Z 15002KT 07/04 A2995 RMK A01 T00670037  RH  081%=      5-min Rain = 0
KCR2 181153Z 15002KT 07/04 A2995 RMK A01 T00670035  RH  080%=      5-min Rain = 0
KCR2 181154Z 15001KT 07/04 A2995 RMK A01 T00660035  RH  080%=      5-min Rain = 0
KCR2 181155Z 14001KT 07/04 A2995 RMK A01 T00660035  RH  080%=      5-min Rain = 0
KCR2 181156Z 15002KT 07/04 A2995 RMK A01 T00660035  RH  081%=      5-min Rain = 0
KCR2 181157Z 16001KT 07/04 A2995 RMK A01 T00660036  RH  081%=      5-min Rain = 0
KCR2 181158Z 16002KT 07/04 A2995 RMK A01 T00670036  RH  081%=      5-min Rain = 0
KCR2 181159Z 15002KT 07/04 A2995 RMK A01 T00670035  RH  080%=      5-min Rain = 0
KCR2 181200Z 16002KT 07/04 A2995 RMK A01 T00670036  RH  081%=      5-min Rain = 0
KCR2 181201Z 17002KT 07/04 A2994 RMK A01 T00670036  RH  080%=      5-min Rain = 0
KCR2 181202Z 17002KT 07/04 A2994 RMK A01 T00670036  RH  081%=      5-min Rain = 0
KCR2 181203Z 17002KT 07/04 A2994 RMK A01 T00670036  RH  080%=      5-min Rain = 0
KCR2 181204Z 17002KT 07/04 A2994 RMK A01 T00680036  RH  080%=      5-min Rain = 0
KCR2 181205Z 18003KT 07/04 A2994 RMK A01 T00690039  RH  081%=      5-min Rain = 0
KCR2 181206Z 18003KT 07/04 A2994 RMK A01 T00730044  RH  082%=      5-min Rain = 0
KCR2 181207Z 19003KT 08/04 A2994 RMK A01 T00760044  RH  080%=      5-min Rain = 0
KCR2 181208Z 18003KT 08/04 A2994 RMK A01 T00790043  RH  078%=      5-min Rain = 0
KCR2 181209Z 19003KT 08/04 A2994 RMK A01 T00790042  RH  078%=      5-min Rain = 0
KCR2 181210Z 19003KT 08/05 A2994 RMK A01 T00800046  RH  079%=      5-min Rain = 0
KCR2 181211Z 19003KT 08/05 A2994 RMK A01 T00830046  RH  078%=      5-min Rain = 0
KCR2 181212Z 19004KT 09/05 A2994 RMK A01 T00850049  RH  078%=      5-min Rain = 0
KCR2 181213Z 19004KT 09/05 A2994 RMK A01 T00880050  RH  077%=      5-min Rain = 0
KCR2 181214Z 20004KT 09/05 A2993 RMK A01 T00900050  RH  076%=      5-min Rain = 0
KCR2 181215Z 20004KT 09/05 A2993 RMK A01 T00910050  RH  075%=      5-min Rain = 0
KCR2 181216Z 20005KT 09/05 A2993 RMK A01 T00930051  RH  075%=      5-min Rain = 0
KCR2 181217Z 20005KT 10/05 A2993 RMK A01 T00950051  RH  074%=      5-min Rain = 0
KCR2 181218Z 20005KT 10/05 A2993 RMK A01 T00960051  RH  073%=      5-min Rain = 0
KCR2 181219Z 20006KT 10/05 A2993 RMK A01 T00970050  RH  073%=      5-min Rain = 0
KCR2 181220Z 20006KT 10/05 A2993 RMK A01 T00970050  RH  072%=      5-min Rain = 0
KCR2 181221Z 20007KT 10/05 A2993 RMK A01 T00970049  RH  072%=      5-min Rain = 0
KCR2 181222Z 20006KT 10/05 A2993 RMK A01 T00960049  RH  072%=      5-min Rain = 0
KCR2 181223Z 20007KT 10/05 A2993 RMK A01 T00960050  RH  073%=      5-min Rain = 0
KCR2 181224Z 20007KT 10/05 A2993 RMK A01 T00970051  RH  073%=      5-min Rain = 0
KCR2 181225Z 20007KT 10/05 A2993 RMK A01 T00980051  RH  073%=      5-min Rain = 0
KCR2 181226Z 20007KT 10/05 A2993 RMK A01 T00980052  RH  073%=      5-min Rain = 0
KCR2 181227Z 20007KT 10/05 A2993 RMK A01 T00990052  RH  073%=      5-min Rain = 0
KCR2 181228Z 20007KT 10/05 A2993 RMK A01 T01000053  RH  073%=      5-min Rain = 0
KCR2 181229Z 20007KT 10/05 A2993 RMK A01 T01010054  RH  072%=      5-min Rain = 0
KCR2 181230Z 20009KT 10/05 A2993 RMK A01 T01020054  RH  072%=      5-min Rain = 0
KCR2 181231Z 19009KT 11/06 A2993 RMK A01 T01050056  RH  071%=      5-min Rain = 0
KCR2 181232Z 20009KT 11/06 A2993 RMK A01 T01080055  RH  070%=      5-min Rain = 0
KCR2 181233Z 19009KT 11/06 A2993 RMK A01 T01090055  RH  070%=      5-min Rain = 0
KCR2 181234Z 19008KT 11/06 A2992 RMK A01 T01100055  RH  069%=      5-min Rain = 0
KCR2 181235Z 19009KT 11/06 A2992 RMK A01 T01110055  RH  069%=      5-min Rain = 0
KCR2 181236Z 19010KT 11/06 A2992 RMK A01 T01130056  RH  068%=      5-min Rain = 0
KCR2 181237Z 19010KT 11/06 A2992 RMK A01 T01140056  RH  067%=      5-min Rain = 0
KCR2 181238Z 19010KT 12/06 A2992 RMK A01 T01150056  RH  067%=      5-min Rain = 0
KCR2 181239Z 19011KT 12/06 A2992 RMK A01 T01150055  RH  067%=      5-min Rain = 0
KCR2 181240Z 20010KT 12/06 A2992 RMK A01 T01170056  RH  066%=      5-min Rain = 0
KCR2 181241Z 19010KT 12/06 A2992 RMK A01 T01170056  RH  066%=      5-min Rain = 0
KCR2 181242Z 19010KT 12/06 A2992 RMK A01 T01170055  RH  066%=      5-min Rain = 0
KCR2 181243Z 19010KT 12/06 A2992 RMK A01 T01170056  RH  066%=      5-min Rain = 0
KCR2 181244Z 20010KT 12/06 A2992 RMK A01 T01170056  RH  066%=      5-min Rain = 0
KCR2 181245Z 20009KT 12/06 A2992 RMK A01 T01170056  RH  066%=      5-min Rain = 0
KCR2 181246Z 20010KT 12/06 A2992 RMK A01 T01170056  RH  066%=      5-min Rain = 0
KCR2 181247Z 20009KT 12/06 A2991 RMK A01 T01170056  RH  066%=      5-min Rain = 0
KCR2 181248Z 20010KT 12/06 A2991 RMK A01 T01160056  RH  067%=      5-min Rain = 0
KCR2 181249Z 20010KT 12/06 A2991 RMK A01 T01160056  RH  067%=      5-min Rain = 0
KCR2 181250Z 20009KT 12/06 A2991 RMK A01 T01160056  RH  066%=      5-min Rain = 0
KCR2 181251Z 20010KT 12/06 A2991 RMK A01 T01160056  RH  066%=      5-min Rain = 0
KCR2 181252Z 21010KT 12/06 A2992 RMK A01 T01170056  RH  066%=      5-min Rain = 0
KCR2 181253Z 21009KT 12/06 A2992 RMK A01 T01170055  RH  066%=      5-min Rain = 0
KCR2 181254Z 22008KT 12/06 A2992 RMK A01 T01170055  RH  066%=      5-min Rain = 0
KCR2 181255Z 22007KT 12/06 A2992 RMK A01 T01160055  RH  066%=      5-min Rain = 0
KCR2 181256Z 22008KT 12/06 A2992 RMK A01 T01150055  RH  067%=      5-min Rain = 0
KCR2 181257Z 22008KT 12/06 A2992 RMK A01 T01150056  RH  067%=      5-min Rain = 0
KCR2 181258Z 22007KT 12/06 A2992 RMK A01 T01150056  RH  067%=      5-min Rain = 0
KCR2 181259Z 23007KT 12/06 A2992 RMK A01 T01160056  RH  067%=      5-min Rain = 0
KCR2 181300Z 23007KT 12/06 A2992 RMK A01 T01150056  RH  067%=      5-min Rain = 0
KCR2 181301Z 23007KT 12/06 A2992 RMK A01 T01150056  RH  067%=      5-min Rain = 0
KCR2 181302Z 24007KT 11/06 A2992 RMK A01 T01130055  RH  068%=      5-min Rain = 0
KCR2 181303Z 24007KT 11/06 A2992 RMK A01 T01110055  RH  068%=      5-min Rain = 0
KCR2 181304Z 23007KT 11/06 A2992 RMK A01 T01110055  RH  068%=      5-min Rain = 0
KCR2 181305Z 23007KT 11/06 A2992 RMK A01 T01100055  RH  069%=      5-min Rain = 0
KCR2 181306Z 23008KT 11/06 A2992 RMK A01 T01100055  RH  069%=      5-min Rain = 0
KCR2 181307Z 23007KT 11/06 A2993 RMK A01 T01100055  RH  069%=      5-min Rain = 0
KCR2 181308Z 24006KT 11/05 A2993 RMK A01 T01090054  RH  069%=      5-min Rain = 0
KCR2 181309Z 24006KT 11/05 A2993 RMK A01 T01070053  RH  069%=      5-min Rain = 0
KCR2 181310Z 24006KT 11/05 A2993 RMK A01 T01050052  RH  070%=      5-min Rain = 0
KCR2 181311Z 24007KT 10/05 A2993 RMK A01 T01040052  RH  070%=      5-min Rain = 0
KCR2 181312Z 23006KT 10/05 A2993 RMK A01 T01040053  RH  070%=      5-min Rain = 0
KCR2 181313Z 24006KT 10/05 A2993 RMK A01 T01040053  RH  071%=      5-min Rain = 0
KCR2 181314Z 24005KT 10/05 A2993 RMK A01 T01030052  RH  071%=      5-min Rain = 0
KCR2 181315Z 25004KT 10/05 A2993 RMK A01 T01010052  RH  071%=      5-min Rain = 0
KCR2 181316Z 25005KT 10/05 A2993 RMK A01 T01000052  RH  072%=      5-min Rain = 0
KCR2 181317Z 26004KT 10/05 A2993 RMK A01 T01000051  RH  072%=      5-min Rain = 0
KCR2 181318Z 28004KT 10/05 A2993 RMK A01 T00970050  RH  072%=      5-min Rain = 0
KCR2 181319Z 32004KT 09/05 A2993 RMK A01 T00940048  RH  073%=      5-min Rain = 0
KCR2 181320Z 32004KT 09/04 A2993 RMK A01 T00890044  RH  073%=      5-min Rain = 0
KCR2 181321Z 32005KT 08/04 A2993 RMK A01 T00830041  RH  075%=      5-min Rain = 0
KCR2 181322Z 30004KT 08/04 A2993 RMK A01 T00800041  RH  076%=      5-min Rain = 0
KCR2 181323Z 27003KT 08/04 A2993 RMK A01 T00780042  RH  078%=      5-min Rain = 0
KCR2 181324Z 29004KT 08/04 A2993 RMK A01 T00770043  RH  079%=      5-min Rain = 0
KCR2 181325Z 31005KT 08/04 A2993 RMK A01 T00770043  RH  079%=      5-min Rain = 0
KCR2 181326Z 30004KT 08/04 A2993 RMK A01 T00760040  RH  078%=      5-min Rain = 0
KCR2 181327Z 28003KT 07/04 A2993 RMK A01 T00740040  RH  079%=      5-min Rain = 0
KCR2 181328Z 28003KT 07/04 A2993 RMK A01 T00730041  RH  080%=      5-min Rain = 0
KCR2 181329Z 32004KT 07/04 A2993 RMK A01 T00720040  RH  080%=      5-min Rain = 0
KCR2 181330Z 32005KT 07/04 A2993 RMK A01 T00710040  RH  080%=      5-min Rain = 0
KCR2 181331Z 32004KT 07/04 A2993 RMK A01 T00710041  RH  081%=      5-min Rain = 0
KCR2 181332Z 32004KT 07/04 A2993 RMK A01 T00700039  RH  081%=      5-min Rain = 0
KCR2 181333Z 32003KT 07/04 A2993 RMK A01 T00690040  RH  082%=      5-min Rain = 0
KCR2 181334Z 32003KT 07/04 A2993 RMK A01 T00690041  RH  082%=      5-min Rain = 0
KCR2 181335Z 33003KT 07/04 A2993 RMK A01 T00690040  RH  082%=      5-min Rain = 0
KCR2 181336Z 32003KT 07/04 A2994 RMK A01 T00690041  RH  082%=      5-min Rain = 0
KCR2 181337Z 32003KT 07/04 A2994 RMK A01 T00690041  RH  082%=      5-min Rain = 0
KCR2 181338Z 32004KT 07/04 A2994 RMK A01 T00680040  RH  082%=      5-min Rain = 0
KCR2 181339Z 31004KT 07/04 A2994 RMK A01 T00680040  RH  082%=      5-min Rain = 0
KCR2 181340Z 31004KT 07/04 A2994 RMK A01 T00670039  RH  082%=      5-min Rain = 0
KCR2 181341Z 31004KT 07/04 A2994 RMK A01 T00660038  RH  082%=      5-min Rain = 0
KCR2 181342Z 31004KT 07/04 A2994 RMK A01 T00660038  RH  083%=      5-min Rain = 0
KCR2 181343Z 31004KT 07/04 A2994 RMK A01 T00650039  RH  083%=      5-min Rain = 0
KCR2 181344Z 30004KT 07/04 A2994 RMK A01 T00660039  RH  083%=      5-min Rain = 0
KCR2 181345Z 30004KT 07/04 A2994 RMK A01 T00650039  RH  083%=      5-min Rain = 0
KCR2 181346Z 30005KT 07/04 A2994 RMK A01 T00650039  RH  083%=      5-min Rain = 0
KCR2 181347Z 30005KT 07/04 A2994 RMK A01 T00650039  RH  083%=      5-min Rain = 0
KCR2 181348Z 29005KT 07/04 A2994 RMK A01 T00650040  RH  084%=      5-min Rain = 0
KCR2 181349Z 29005KT 07/04 A2994 RMK A01 T00660041  RH  084%=      5-min Rain = 0
KCR2 181350Z 30005KT 07/04 A2994 RMK A01 T00660041  RH  084%=      5-min Rain = 0
KCR2 181351Z 30005KT 07/04 A2995 RMK A01 T00660041  RH  084%=      5-min Rain = 0
KCR2 181352Z 30006KT 07/04 A2995 RMK A01 T00650040  RH  084%=      5-min Rain = 0
KCR2 181353Z 30006KT 07/04 A2995 RMK A01 T00650040  RH  084%=      5-min Rain = 0
KCR2 181354Z 30006KT 07/04 A2995 RMK A01 T00650040  RH  085%=      5-min Rain = 0
KCR2 181355Z 30005KT 07/04 A2995 RMK A01 T00650040  RH  085%=      5-min Rain = 0
KCR2 181356Z 30005KT 06/04 A2995 RMK A01 T00640040  RH  085%=      5-min Rain = 0
KCR2 181357Z 30005KT 06/04 A2995 RMK A01 T00640041  RH  085%=      5-min Rain = 0
KCR2 181358Z 30004KT 06/04 A2995 RMK A01 T00640041  RH  085%=      5-min Rain = 0
KCR2 181359Z 30004KT 06/04 A2995 RMK A01 T00640041  RH  085%=      5-min Rain = 0
KCR2 181400Z 30004KT 06/04 A2995 RMK A01 T00640042  RH  085%=      5-min Rain = 0
KCR2 181401Z 30004KT 07/04 A2995 RMK A01 T00650042  RH  086%=      5-min Rain = 0
KCR2 181402Z 30004KT 06/04 A2995 RMK A01 T00640042  RH  086%=      5-min Rain = 0
KCR2 181403Z 29005KT 07/04 A2995 RMK A01 T00650042  RH  086%=      5-min Rain = 0
KCR2 181404Z 29005KT 06/04 A2995 RMK A01 T00640042  RH  086%=      5-min Rain = 0
KCR2 181405Z 29005KT 07/04 A2995 RMK A01 T00650043  RH  086%=      5-min Rain = 0
KCR2 181406Z 28004KT 07/04 A2995 RMK A01 T00650043  RH  086%=      5-min Rain = 0
KCR2 181407Z 28004KT 07/04 A2995 RMK A01 T00650043  RH  086%=      5-min Rain = 0
KCR2 181408Z 28004KT 06/04 A2995 RMK A01 T00640042  RH  086%=      5-min Rain = 0
KCR2 181409Z 28004KT 07/04 A2995 RMK A01 T00650043  RH  086%=      5-min Rain = 0
KCR2 181410Z 28004KT 07/04 A2995 RMK A01 T00650043  RH  086%=      5-min Rain = 0
KCR2 181411Z 29005KT 07/04 A2995 RMK A01 T00650043  RH  086%=      5-min Rain = 0
KCR2 181412Z 29005KT 07/04 A2995 RMK A01 T00650043  RH  086%=      5-min Rain = 0
KCR2 181413Z 30006KT 07/04 A2995 RMK A01 T00650043  RH  086%=      5-min Rain = 0
KCR2 181414Z 31006KT 07/04 A2995 RMK A01 T00650043  RH  086%=      5-min Rain = 0
KCR2 181415Z 31007KT 07/04 A2995 RMK A01 T00650043  RH  086%=      5-min Rain = 0
KCR2 181416Z 31007KT 06/04 A2996 RMK A01 T00640043  RH  086%=      5-min Rain = 0
KCR2 181417Z 31007KT 07/05 A2996 RMK A01 T00650045  RH  087%=      5-min Rain = 0
KCR2 181418Z 31006KT 07/05 A2996 RMK A01 T00660046  RH  087%=      5-min Rain = 0
KCR2 181419Z 30006KT 07/05 A2996 RMK A01 T00680047  RH  086%=      5-min Rain = 0
KCR2 181420Z 30006KT 07/05 A2996 RMK A01 T00700048  RH  086%=      5-min Rain = 0
KCR2 181421Z 29005KT 07/05 A2996 RMK A01 T00710048  RH  085%=      5-min Rain = 0
KCR2 181422Z 29005KT 07/05 A2996 RMK A01 T00720049  RH  085%=      5-min Rain = 0
KCR2 181423Z 29005KT 07/05 A2996 RMK A01 T00730049  RH  085%=      5-min Rain = 0
KCR2 181424Z 30005KT 07/05 A2995 RMK A01 T00740049  RH  085%=      5-min Rain = 0
KCR2 181425Z 30005KT 08/05 A2995 RMK A01 T00750050  RH  084%=      5-min Rain = 0
KCR2 181426Z 30005KT 08/05 A2995 RMK A01 T00760050  RH  084%=      5-min Rain = 0
KCR2 181427Z 30005KT 08/05 A2995 RMK A01 T00760050  RH  084%=      5-min Rain = 0
KCR2 181428Z 29004KT 08/05 A2995 RMK A01 T00760050  RH  084%=      5-min Rain = 0
KCR2 181429Z 29004KT 08/05 A2995 RMK A01 T00770051  RH  084%=      5-min Rain = 0
KCR2 181430Z 28004KT 08/05 A2995 RMK A01 T00770051  RH  083%=      5-min Rain = 0
KCR2 181431Z 27004KT 08/05 A2995 RMK A01 T00770051  RH  083%=      5-min Rain = 0
KCR2 181432Z 26004KT 08/05 A2995 RMK A01 T00780051  RH  083%=      5-min Rain = 0
KCR2 181433Z 26004KT 08/05 A2995 RMK A01 T00780051  RH  083%=      5-min Rain = 0
KCR2 181434Z 26004KT 08/05 A2995 RMK A01 T00790052  RH  083%=      5-min Rain = 0
KCR2 181435Z 26004KT 08/05 A2995 RMK A01 T00800052  RH  083%=      5-min Rain = 0
KCR2 181436Z 26004KT 08/05 A2995 RMK A01 T00810053  RH  082%=      5-min Rain = 0
KCR2 181437Z 26004KT 08/05 A2995 RMK A01 T00810053  RH  082%=      5-min Rain = 0
KCR2 181438Z 25004KT 08/05 A2995 RMK A01 T00820053  RH  082%=      5-min Rain = 0
KCR2 181439Z 24003KT 08/05 A2995 RMK A01 T00830054  RH  082%=      5-min Rain = 0
KCR2 181440Z 23004KT 08/05 A2995 RMK A01 T00840054  RH  081%=      5-min Rain = 0
KCR2 181441Z 22004KT 09/05 A2995 RMK A01 T00850054  RH  081%=      5-min Rain = 0
KCR2 181442Z 22004KT 09/06 A2995 RMK A01 T00850055  RH  081%=      5-min Rain = 0
KCR2 181443Z 22005KT 09/06 A2995 RMK A01 T00860055  RH  081%=      5-min Rain = 0
KCR2 181444Z 21005KT 09/06 A2995 RMK A01 T00860055  RH  081%=      5-min Rain = 0
KCR2 181445Z 21005KT 09/05 A2995 RMK A01 T00860054  RH  080%=      5-min Rain = 0
KCR2 181446Z 21005KT 09/05 A2995 RMK A01 T00860053  RH  080%=      5-min Rain = 0
KCR2 181447Z 20005KT 09/05 A2995 RMK A01 T00860053  RH  080%=      5-min Rain = 0
KCR2 181448Z 21005KT 09/05 A2994 RMK A01 T00870053  RH  080%=      5-min Rain = 0
KCR2 181449Z 20005KT 09/05 A2994 RMK A01 T00870054  RH  079%=      5-min Rain = 0
KCR2 181450Z 20005KT 09/05 A2994 RMK A01 T00870054  RH  079%=      5-min Rain = 0
KCR2 181451Z 21006KT 09/05 A2994 RMK A01 T00880053  RH  079%=      5-min Rain = 0
KCR2 181452Z 21006KT 09/05 A2994 RMK A01 T00890054  RH  079%=      5-min Rain = 0
KCR2 181453Z 21007KT 09/05 A2994 RMK A01 T00900054  RH  078%=      5-min Rain = 0
KCR2 181454Z 21007KT 09/05 A2994 RMK A01 T00920054  RH  077%=      5-min Rain = 0
KCR2 181455Z 21006KT 09/05 A2994 RMK A01 T00940054  RH  076%=      5-min Rain = 0
KCR2 181456Z 21007KT 10/06 A2993 RMK A01 T00950055  RH  076%=      5-min Rain = 0
KCR2 181457Z 21007KT 10/06 A2993 RMK A01 T00970055  RH  075%=      5-min Rain = 0
KCR2 181458Z 21007KT 10/05 A2993 RMK A01 T01010054  RH  073%=      5-min Rain = 0
KCR2 181459Z 21007KT 10/06 A2993 RMK A01 T01040055  RH  072%=      5-min Rain = 0
KCR2 181500Z 21007KT 11/05 A2993 RMK A01 T01060054  RH  070%=      5-min Rain = 0
KCR2 181501Z 21007KT 11/05 A2993 RMK A01 T01080054  RH  069%=      5-min Rain = 0
KCR2 181502Z 21007KT 11/06 A2993 RMK A01 T01100055  RH  069%=      5-min Rain = 0
KCR2 181503Z 21007KT 11/06 A2993 RMK A01 T01110055  RH  068%=      5-min Rain = 0
KCR2 181504Z 20007KT 11/05 A2993 RMK A01 T01130053  RH  066%=      5-min Rain = 0
KCR2 181505Z 21006KT 12/05 A2993 RMK A01 T01150054  RH  066%=      5-min Rain = 0
KCR2 181506Z 21007KT 12/05 A2993 RMK A01 T01160054  RH  066%=      5-min Rain = 0
KCR2 181507Z 21007KT 12/06 A2993 RMK A01 T01170055  RH  065%=      5-min Rain = 0
KCR2 181508Z 22007KT 12/05 A2993 RMK A01 T01180054  RH  065%=      5-min Rain = 0
KCR2 181509Z 22007KT 12/05 A2994 RMK A01 T01190054  RH  064%=      5-min Rain = 0
KCR2 181510Z 23007KT 12/05 A2994 RMK A01 T01200053  RH  064%=      5-min Rain = 0
KCR2 181511Z 22007KT 12/05 A2994 RMK A01 T01210054  RH  064%=      5-min Rain = 0
KCR2 181512Z 23007KT 12/05 A2994 RMK A01 T01220053  RH  063%=      5-min Rain = 0
KCR2 181513Z 23007KT 12/05 A2994 RMK A01 T01220053  RH  063%=      5-min Rain = 0
KCR2 181514Z 23007KT 12/05 A2994 RMK A01 T01230054  RH  063%=      5-min Rain = 0
KCR2 181515Z 23007KT 12/05 A2994 RMK A01 T01230054  RH  063%=      5-min Rain = 0
KCR2 181516Z 23007KT 12/05 A2994 RMK A01 T01230054  RH  063%=      5-min Rain = 0
KCR2 181517Z 23008KT 12/05 A2994 RMK A01 T01240053  RH  062%=      5-min Rain = 0
KCR2 181518Z 23007KT 13/05 A2994 RMK A01 T01260053  RH  061%=      5-min Rain = 0
KCR2 181519Z 23007KT 13/06 A2994 RMK A01 T01270055  RH  061%=      5-min Rain = 0
KCR2 181520Z 23007KT 13/06 A2994 RMK A01 T01290055  RH  061%=      5-min Rain = 0
KCR2 181521Z 23010KT 13/05 A2994 RMK A01 T01310054  RH  060%=      5-min Rain = 0
KCR2 181522Z 23010KT 13/05 A2995 RMK A01 T01320051  RH  058%=      5-min Rain = 0
KCR2 181523Z 23009KT 13/05 A2995 RMK A01 T01330051  RH  057%=      5-min Rain = 0
KCR2 181524Z 23009KT 13/05 A2995 RMK A01 T01340052  RH  058%=      5-min Rain = 0
KCR2 181525Z 23008KT 13/05 A2995 RMK A01 T01340052  RH  058%=      5-min Rain = 0
KCR2 181526Z 24009KT 14/05 A2995 RMK A01 T01350052  RH  057%=      5-min Rain = 0
KCR2 181527Z 24009KT 14/05 A2995 RMK A01 T01350051  RH  057%=      5-min Rain = 0
KCR2 181528Z 24009KT 14/05 A2995 RMK A01 T01360049  RH  056%=      5-min Rain = 0
KCR2 181529Z 24009KT 14/05 A2995 RMK A01 T01360050  RH  056%=      5-min Rain = 0
KCR2 181530Z 25009KT 14/05 A2995 RMK A01 T01360048  RH  055%=      5-min Rain = 0
KCR2 181531Z 24009KT 14/05 A2995 RMK A01 T01360049  RH  056%=      5-min Rain = 0
KCR2 181532Z 24009KT 14/05 A2995 RMK A01 T01370048  RH  055%=      5-min Rain = 0
KCR2 181533Z 24008KT 14/05 A2995 RMK A01 T01380048  RH  055%=      5-min Rain = 0
KCR2 181534Z 24009KT 14/05 A2995 RMK A01 T01380047  RH  054%=      5-min Rain = 0
KCR2 181535Z 24010KT 14/05 A2995 RMK A01 T01380046  RH  054%=      5-min Rain = 0
KCR2 181536Z 24009KT 14/05 A2995 RMK A01 T01380046  RH  054%=      5-min Rain = 0
KCR2 181537Z 24009KT 14/05 A2995 RMK A01 T01390047  RH  054%=      5-min Rain = 0
KCR2 181538Z 24010KT 14/05 A2994 RMK A01 T01390046  RH  053%=      5-min Rain = 0
KCR2 181539Z 23010KT 14/05 A2994 RMK A01 T01400046  RH  053%=      5-min Rain = 0
KCR2 181540Z 23009KT 14/05 A2994 RMK A01 T01400046  RH  053%=      5-min Rain = 0
KCR2 181541Z 24008KT 14/05 A2995 RMK A01 T01410049  RH  054%=      5-min Rain = 0
KCR2 181542Z 24010KT 14/05 A2995 RMK A01 T01420048  RH  053%=      5-min Rain = 0
KCR2 181543Z 24010KT 14/05 A2995 RMK A01 T01420045  RH  052%=      5-min Rain = 0
KCR2 181544Z 24008KT 14/05 A2995 RMK A01 T01430048  RH  053%=      5-min Rain = 0
KCR2 181545Z 24008KT 14/05 A2995 RMK A01 T01440048  RH  052%=      5-min Rain = 0
KCR2 181546Z 23009KT 15/05 A2995 RMK A01 T01450048  RH  052%=      5-min Rain = 0
KCR2 181547Z 24009KT 15/05 A2995 RMK A01 T01460047  RH  051%=      5-min Rain = 0
KCR2 181548Z 24008KT 15/05 A2995 RMK A01 T01460045  RH  051%=      5-min Rain = 0
KCR2 181549Z 24009KT 15/05 A2995 RMK A01 T01470048  RH  051%=      5-min Rain = 0
KCR2 181550Z 23009KT 15/05 A2995 RMK A01 T01480046  RH  050%=      5-min Rain = 0
KCR2 181551Z 24009KT 15/05 A2995 RMK A01 T01480046  RH  050%=      5-min Rain = 0
KCR2 181552Z 24009KT 15/05 A2995 RMK A01 T01490046  RH  050%=      5-min Rain = 0
KCR2 181553Z 24009KT 15/05 A2995 RMK A01 T01500045  RH  050%=      5-min Rain = 0
KCR2 181554Z 25010KT 15/05 A2995 RMK A01 T01500046  RH  050%=      5-min Rain = 0
KCR2 181555Z 25010KT 15/04 A2995 RMK A01 T01510044  RH  049%=      5-min Rain = 0
KCR2 181556Z 24010KT 15/04 A2995 RMK A01 T01510043  RH  048%=      5-min Rain = 0
KCR2 181557Z 24009KT 15/04 A2994 RMK A01 T01520044  RH  049%=      5-min Rain = 0
KCR2 181558Z 24009KT 15/04 A2994 RMK A01 T01520043  RH  048%=      5-min Rain = 0
KCR2 181559Z 25011KT 15/04 A2994 RMK A01 T01530044  RH  048%=      5-min Rain = 0
KCR2 181600Z 25011KT 15/04 A2994 RMK A01 T01540043  RH  047%=      5-min Rain = 0
KCR2 181601Z 24009KT 16/04 A2994 RMK A01 T01550042  RH  047%=      5-min Rain = 0
KCR2 181602Z 24009KT 16/04 A2994 RMK A01 T01550044  RH  048%=      5-min Rain = 0
KCR2 181603Z 24011KT 16/04 A2994 RMK A01 T01560044  RH  047%=      5-min Rain = 0
KCR2 181604Z 24009KT 16/05 A2994 RMK A01 T01570045  RH  047%=      5-min Rain = 0
KCR2 181605Z 24010KT 16/05 A2994 RMK A01 T01580045  RH  047%=      5-min Rain = 0
KCR2 181606Z 24011KT 16/05 A2994 RMK A01 T01590045  RH  047%=      5-min Rain = 0
KCR2 181607Z 23012KT 16/04 A2994 RMK A01 T01590042  RH  046%=      5-min Rain = 0
KCR2 181608Z 24011KT 16/04 A2994 RMK A01 T01600041  RH  045%=      5-min Rain = 0
KCR2 181609Z 24011KT 16/04 A2994 RMK A01 T01600041  RH  045%=      5-min Rain = 0
KCR2 181610Z 23010KT 16/04 A2994 RMK A01 T01610042  RH  045%=      5-min Rain = 0
KCR2 181611Z 23012KT 16/04 A2994 RMK A01 T01620044  RH  045%=      5-min Rain = 0
KCR2 181612Z 24011KT 16/04 A2994 RMK A01 T01630043  RH  045%=      5-min Rain = 0
KCR2 181613Z 24012KT 16/04 A2994 RMK A01 T01640044  RH  045%=      5-min Rain = 0
KCR2 181614Z 24011KT 17/04 A2994 RMK A01 T01650042  RH  044%=      5-min Rain = 0
KCR2 181615Z 24010KT 17/05 A2994 RMK A01 T01670045  RH  044%=      5-min Rain = 0
KCR2 181616Z 24013KT 17/04 A2994 RMK A01 T01690044  RH  043%=      5-min Rain = 0
KCR2 181617Z 24014KT 17/04 A2994 RMK A01 T01690041  RH  042%=      5-min Rain = 0
KCR2 181618Z 24012KT 17/04 A2994 RMK A01 T01690042  RH  043%=      5-min Rain = 0
KCR2 181619Z 25013KT 17/04 A2994 RMK A01 T01700043  RH  043%=      5-min Rain = 0
KCR2 181620Z 24012KT 17/04 A2994 RMK A01 T01710042  RH  042%=      5-min Rain = 0
KCR2 181621Z 24011KT 17/04 A2993 RMK A01 T01710044  RH  043%=      5-min Rain = 0
KCR2 181622Z 24013KT 17/05 A2993 RMK A01 T01730046  RH  043%=      5-min Rain = 0
KCR2 181623Z 24015KT 17/04 A2993 RMK A01 T01730040  RH  041%=      5-min Rain = 0
KCR2 181624Z 23014KT 17/04 A2993 RMK A01 T01740042  RH  042%=      5-min Rain = 0
KCR2 181625Z 24014KT 18/04 A2993 RMK A01 T01750042  RH  041%=      5-min Rain = 0
KCR2 181626Z 24013KT 18/04 A2993 RMK A01 T01750041  RH  041%=      5-min Rain = 0
KCR2 181627Z 24013KT 18/04 A2993 RMK A01 T01760041  RH  041%=      5-min Rain = 0
KCR2 181628Z 24014KT 18/04 A2993 RMK A01 T01770043  RH  041%=      5-min Rain = 0
KCR2 181629Z 23013KT 18/04 A2993 RMK A01 T01780042  RH  040%=      5-min Rain = 0
KCR2 181630Z 24014KT 18/04 A2993 RMK A01 T01790041  RH  040%=      5-min Rain = 0
KCR2 181631Z 25012KT 18/04 A2993 RMK A01 T01800043  RH  040%=      5-min Rain = 0
KCR2 181632Z 24017KT 18/04 A2994 RMK A01 T01810040  RH  039%=      5-min Rain = 0
KCR2 181633Z 25016KT 18/04 A2994 RMK A01 T01810039  RH  039%=      5-min Rain = 0
KCR2 181634Z 25013KT 18/04 A2994 RMK A01 T01810040  RH  039%=      5-min Rain = 0
KCR2 181635Z 26015KT 18/04 A2994 RMK A01 T01810038  RH  039%=      5-min Rain = 0
KCR2 181636Z 25014KT 18/04 A2994 RMK A01 T01810039  RH  039%=      5-min Rain = 0
KCR2 181637Z 25014KT 18/04 A2994 RMK A01 T01810038  RH  039%=      5-min Rain = 0
KCR2 181638Z 25013KT 18/04 A2994 RMK A01 T01810039  RH  039%=      5-min Rain = 0
KCR2 181639Z 25017KT 18/04 A2994 RMK A01 T01820040  RH  039%=      5-min Rain = 0
KCR2 181640Z 25015KT 18/04 A2994 RMK A01 T01830039  RH  038%=      5-min Rain = 0
KCR2 181641Z 25017KT 18/04 A2994 RMK A01 T01830039  RH  038%=      5-min Rain = 0
KCR2 181642Z 25016KT 18/04 A2994 RMK A01 T01820039  RH  039%=      5-min Rain = 0
KCR2 181643Z 26016KT 18/04 A2994 RMK A01 T01820039  RH  039%=      5-min Rain = 0
KCR2 181644Z 25016KT 18/04 A2994 RMK A01 T01810040  RH  039%=      5-min Rain = 0
KCR2 181645Z 25017KT 18/04 A2994 RMK A01 T01810040  RH  039%=      5-min Rain = 0
KCR2 181646Z 24016KT 18/04 A2994 RMK A01 T01810039  RH  039%=      5-min Rain = 0
KCR2 181647Z 25016KT 18/04 A2994 RMK A01 T01810039  RH  039%=      5-min Rain = 0
KCR2 181648Z 26014KT 18/04 A2994 RMK A01 T01820039  RH  039%=      5-min Rain = 0
KCR2 181649Z 26013KT 18/04 A2994 RMK A01 T01830040  RH  039%=      5-min Rain = 0
KCR2 181650Z 27016KT 19/04 A2994 RMK A01 T01850039  RH  038%=      5-min Rain = 0
KCR2 181651Z 25012KT 19/04 A2994 RMK A01 T01860039  RH  038%=      5-min Rain = 0
KCR2 181652Z 26015G20KT 19/04 A2994 RMK A01 T01870041  RH  038%=      5-min Rain = 0
KCR2 181653Z 26016KT 19/04 A2994 RMK A01 T01880038  RH  037%=      5-min Rain = 0
KCR2 181654Z 25017KT 19/04 A2994 RMK A01 T01870039  RH  037%=      5-min Rain = 0
KCR2 181655Z 26017KT 19/04 A2994 RMK A01 T01880038  RH  037%=      5-min Rain = 0
KCR2 181656Z 26015KT 19/04 A2994 RMK A01 T01880037  RH  037%=      5-min Rain = 0
KCR2 181657Z 25018G24KT 19/04 A2994 RMK A01 T01890039  RH  037%=      5-min Rain = 0
KCR2 181658Z 26014KT 19/04 A2994 RMK A01 T01910039  RH  037%=      5-min Rain = 0
KCR2 181659Z 25016KT 19/04 A2994 RMK A01 T01920041  RH  037%=      5-min Rain = 0
KCR2 181700Z 26016KT 19/04 A2994 RMK A01 T01930040  RH  036%=      5-min Rain = 0
KCR2 181701Z 26017KT 19/04 A2994 RMK A01 T01930038  RH  036%=      5-min Rain = 0
KCR2 181702Z 26015KT 19/04 A2994 RMK A01 T01920038  RH  036%=      5-min Rain = 0
KCR2 181703Z 26014KT 19/04 A2994 RMK A01 T01920039  RH  036%=      5-min Rain = 0
KCR2 181704Z 25014G20KT 19/04 A2994 RMK A01 T01930042  RH  037%=      5-min Rain = 0
KCR2 181705Z 26017KT 20/04 A2994 RMK A01 T01950040  RH  036%=      5-min Rain = 0
KCR2 181706Z 25016KT 20/04 A2993 RMK A01 T01950040  RH  036%=      5-min Rain = 0
KCR2 181707Z 25013KT 20/04 A2993 RMK A01 T01950040  RH  036%=      5-min Rain = 0
KCR2 181708Z 25017KT 20/04 A2993 RMK A01 T01970040  RH  036%=      5-min Rain = 0
KCR2 181709Z 25019KT 20/04 A2993 RMK A01 T01970040  RH  035%=      5-min Rain = 0
KCR2 181710Z 25017KT 20/04 A2993 RMK A01 T01980040  RH  035%=      5-min Rain = 0
KCR2 181711Z 25019KT 20/04 A2993 RMK A01 T02000037  RH  034%=      5-min Rain = 0
KCR2 181712Z 26019KT 20/04 A2993 RMK A01 T02000036  RH  034%=      5-min Rain = 0
KCR2 181713Z 25017KT 20/04 A2993 RMK A01 T02010040  RH  035%=      5-min Rain = 0
KCR2 181714Z 26019KT 20/04 A2993 RMK A01 T02020039  RH  034%=      5-min Rain = 0
KCR2 181715Z 25020KT 20/04 A2993 RMK A01 T02020036  RH  033%=      5-min Rain = 0
KCR2 181716Z 25017KT 20/04 A2993 RMK A01 T02030036  RH  033%=      5-min Rain = 0
KCR2 181717Z 26018KT 20/04 A2993 RMK A01 T02030037  RH  034%=      5-min Rain = 0
KCR2 181718Z 26018KT 20/04 A2993 RMK A01 T02030037  RH  033%=      5-min Rain = 0
KCR2 181719Z 25019KT 20/04 A2993 RMK A01 T02040036  RH  033%=      5-min Rain = 0
KCR2 181720Z 25017KT 20/04 A2993 RMK A01 T02040036  RH  033%=      5-min Rain = 0
KCR2 181721Z 25018KT 21/04 A2993 RMK A01 T02050036  RH  033%=      5-min Rain = 0
KCR2 181722Z 26019KT 21/04 A2993 RMK A01 T02060036  RH  033%=      5-min Rain = 0
KCR2 181723Z 26017KT 21/03 A2993 RMK A01 T02070034  RH  032%=      5-min Rain = 0
KCR2 181724Z 26016G21KT 21/04 A2993 RMK A01 T02080035  RH  032%=      5-min Rain = 0
KCR2 181725Z 27022KT 21/03 A2993 RMK A01 T02090033  RH  031%=      5-min Rain = 0
KCR2 181726Z 26019KT 21/03 A2993 RMK A01 T02080032  RH  031%=      5-min Rain = 0
KCR2 181727Z 26018KT 21/03 A2993 RMK A01 T02070034  RH  032%=      5-min Rain = 0
KCR2 181728Z 26019KT 21/03 A2993 RMK A01 T02070033  RH  032%=      5-min Rain = 0
KCR2 181729Z 27019KT 21/03 A2993 RMK A01 T02080033  RH  032%=      5-min Rain = 0
KCR2 181730Z 26019KT 21/03 A2993 RMK A01 T02080034  RH  032%=      5-min Rain = 0
KCR2 181731Z 26018KT 21/04 A2992 RMK A01 T02090035  RH  032%=      5-min Rain = 0
KCR2 181732Z 26019KT 21/04 A2992 RMK A01 T02110035  RH  031%=      5-min Rain = 0
KCR2 181733Z 26017KT 21/03 A2992 RMK A01 T02110033  RH  031%=      5-min Rain = 0
KCR2 181734Z 26020KT 21/03 A2992 RMK A01 T02120033  RH  031%=      5-min Rain = 0
KCR2 181735Z 25020KT 21/03 A2992 RMK A01 T02120033  RH  031%=      5-min Rain = 0
KCR2 181736Z 26016KT 21/03 A2992 RMK A01 T02120033  RH  031%=      5-min Rain = 0
KCR2 181737Z 26018G23KT 21/04 A2992 RMK A01 T02130035  RH  031%=      5-min Rain = 0
KCR2 181738Z 26020KT 22/03 A2992 RMK A01 T02150032  RH  030%=      5-min Rain = 0
KCR2 181739Z 27018G25KT 22/03 A2992 RMK A01 T02150032  RH  030%=      5-min Rain = 0
KCR2 181740Z 28022KT 22/03 A2992 RMK A01 T02170026  RH  028%=      5-min Rain = 0
KCR2 181741Z 27022KT 22/02 A2992 RMK A01 T02180023  RH  028%=      5-min Rain = 0
KCR2 181742Z 26019G24KT 22/03 A2992 RMK A01 T02170025  RH  028%=      5-min Rain = 0
KCR2 181743Z 26019KT 22/03 A2992 RMK A01 T02180026  RH  028%=      5-min Rain = 0
KCR2 181744Z 26021KT 22/03 A2992 RMK A01 T02200026  RH  028%=      5-min Rain = 0
KCR2 181745Z 26020KT 22/03 A2992 RMK A01 T02200027  RH  028%=      5-min Rain = 0
KCR2 181746Z 26022G30KT 22/03 A2992 RMK A01 T02190026  RH  028%=      5-min Rain = 0
KCR2 181747Z 26019KT 22/02 A2992 RMK A01 T02190024  RH  028%=      5-min Rain = 0
KCR2 181748Z 26020KT 22/03 A2992 RMK A01 T02190025  RH  028%=      5-min Rain = 0
KCR2 181749Z 26022G27KT 22/02 A2991 RMK A01 T02190022  RH  027%=      5-min Rain = 0
KCR2 181750Z 25024G32KT 22/02 A2991 RMK A01 T02200019  RH  027%=      5-min Rain = 0
KCR2 181751Z 26023KT 22/02 A2991 RMK A01 T02200021  RH  027%=      5-min Rain = 0
KCR2 181752Z 27019KT 22/02 A2991 RMK A01 T02210020  RH  026%=      5-min Rain = 0
KCR2 181753Z 26016KT 22/02 A2991 RMK A01 T02220023  RH  027%=      5-min Rain = 0
KCR2 181754Z 27020KT 22/02 A2991 RMK A01 T02240023  RH  027%=      5-min Rain = 0
KCR2 181755Z 27021KT 22/02 A2991 RMK A01 T02240024  RH  027%=      5-min Rain = 0
KCR2 181756Z 27019G24KT 22/02 A2991 RMK A01 T02230024  RH  027%=      5-min Rain = 0
KCR2 181757Z 26015KT 22/03 A2991 RMK A01 T02230026  RH  027%=      5-min Rain = 0
KCR2 181758Z 25021G26KT 23/03 A2991 RMK A01 T02260027  RH  027%=      5-min Rain = 0
KCR2 181759Z 27020KT 23/03 A2991 RMK A01 T02260027  RH  027%=      5-min Rain = 0
KCR2 181800Z 28022G27KT 23/03 A2991 RMK A01 T02260025  RH  027%=      5-min Rain = 0
KCR2 181801Z 27018KT 23/02 A2991 RMK A01 T02250024  RH  027%=      5-min Rain = 0
KCR2 181802Z 27019G29KT 23/03 A2991 RMK A01 T02250026  RH  027%=      5-min Rain = 0
KCR2 181803Z 27027KT 23/02 A2991 RMK A01 T02270021  RH  026%=      5-min Rain = 0
KCR2 181804Z 26026G31KT 23/02 A2991 RMK A01 T02260017  RH  025%=      5-min Rain = 0
KCR2 181805Z 27026KT 22/02 A2991 RMK A01 T02240017  RH  025%=      5-min Rain = 0
KCR2 181806Z 27021G26KT 22/02 A299 RMK A01 T02240018  RH  026%=      5-min Rain = 0
KCR2 181807Z 28024G29KT 23/02 A299 RMK A01 T02260020  RH  026%=      5-min Rain = 0
KCR2 181808Z 28023G29KT 23/02 A299 RMK A01 T02260017  RH  025%=      5-min Rain = 0
KCR2 181809Z 28028G33KT 23/02 A2991 RMK A01 T02260018  RH  026%=      5-min Rain = 0
KCR2 181810Z 28023G31KT 22/02 A2991 RMK A01 T02230017  RH  026%=      5-min Rain = 0
KCR2 181811Z 28022G34KT 22/02 A2991 RMK A01 T02220018  RH  026%=      5-min Rain = 0
KCR2 181812Z 29028G34KT 22/02 A2991 RMK A01 T02210015  RH  026%=      5-min Rain = 0
KCR2 181813Z 27022G27KT 22/02 A2991 RMK A01 T02200016  RH  026%=      5-min Rain = 0
KCR2 181814Z 27026G31KT 22/02 A299 RMK A01 T02220016  RH  026%=      5-min Rain = 0
KCR2 181815Z 28026KT 22/01 A2991 RMK A01 T02230014  RH  025%=      5-min Rain = 0
KCR2 181816Z 28029G35KT 22/01 A2991 RMK A01 T02230014  RH  025%=      5-min Rain = 0
KCR2 181817Z 28025G32KT 22/01 A299 RMK A01 T02210012  RH  025%=      5-min Rain = 0
KCR2 181818Z 28023G28KT 22/02 A299 RMK A01 T02220016  RH  026%=      5-min Rain = 0
KCR2 181819Z 27023KT 22/02 A299 RMK A01 T02240015  RH  025%=      5-min Rain = 0
KCR2 181820Z 27028KT 22/01 A299 RMK A01 T02240013  RH  025%=      5-min Rain = 0
KCR2 181821Z 28024G30KT 22/01 A299 RMK A01 T02230012  RH  025%=      5-min Rain = 0
KCR2 181822Z 28028G35KT 22/01 A299 RMK A01 T02220012  RH  025%=      5-min Rain = 0
KCR2 181823Z 28027KT 22/01 A299 RMK A01 T02210013  RH  025%=      5-min Rain = 0
KCR2 181824Z 28028KT 22/01 A299 RMK A01 T02190012  RH  025%=      5-min Rain = 0
KCR2 181825Z 27025KT 22/01 A2989 RMK A01 T02180012  RH  026%=      5-min Rain = 0
KCR2 181826Z 28023KT 22/01 A2989 RMK A01 T02180012  RH  026%=      5-min Rain = 0
KCR2 181827Z 28024KT 22/01 A2989 RMK A01 T02190013  RH  026%=      5-min Rain = 0
KCR2 181828Z 27021KT 22/01 A2989 RMK A01 T02180013  RH  026%=      5-min Rain = 0
KCR2 181829Z 27023KT 22/01 A2989 RMK A01 T02190013  RH  026%=      5-min Rain = 0
KCR2 181830Z 27026G32KT 22/01 A2989 RMK A01 T02190011  RH  025%=      5-min Rain = 0
KCR2 181831Z 27026G34KT 22/01 A2989 RMK A01 T02190008  RH  025%=      5-min Rain = 0
KCR2 181832Z 28024G32KT 22/01 A2989 RMK A01 T02210011  RH  025%=      5-min Rain = 0
KCR2 181833Z 27023KT 22/01 A2988 RMK A01 T02230011  RH  025%=      5-min Rain = 0
KCR2 181834Z 28028G33KT 22/01 A2988 RMK A01 T02230011  RH  024%=      5-min Rain = 0
KCR2 181835Z 27024KT 22/01 A2988 RMK A01 T02220011  RH  025%=      5-min Rain = 0
KCR2 181836Z 26024G30KT 22/01 A2988 RMK A01 T02220012  RH  025%=      5-min Rain = 0
KCR2 181837Z 27024G30KT 22/01 A2988 RMK A01 T02230012  RH  025%=      5-min Rain = 0
KCR2 181838Z 27025KT 22/01 A2988 RMK A01 T02240014  RH  025%=      5-min Rain = 0
KCR2 181839Z 27023G28KT 22/01 A2988 RMK A01 T02240014  RH  025%=      5-min Rain = 0
KCR2 181840Z 27020G25KT 22/02 A2987 RMK A01 T02240015  RH  025%=      5-min Rain = 0
KCR2 181841Z 27022KT 22/02 A2987 RMK A01 T02240016  RH  025%=      5-min Rain = 0
KCR2 181842Z 26021G26KT 23/02 A2987 RMK A01 T02250015  RH  025%=      5-min Rain = 0
KCR2 181843Z 26027KT 23/01 A2987 RMK A01 T02260014  RH  025%=      5-min Rain = 0
KCR2 181844Z 26024G31KT 23/01 A2987 RMK A01 T02250014  RH  025%=      5-min Rain = 0
KCR2 181845Z 27022G27KT 23/02 A2987 RMK A01 T02250015  RH  025%=      5-min Rain = 0
KCR2 181846Z 26021G26KT 23/02 A2986 RMK A01 T02250015  RH  025%=      5-min Rain = 0
KCR2 181847Z 26023KT 23/01 A2986 RMK A01 T02250014  RH  025%=      5-min Rain = 0
KCR2 181848Z 25024KT 23/01 A2986 RMK A01 T02270013  RH  024%=      5-min Rain = 0
KCR2 181849Z 27024G29KT 23/01 A2986 RMK A01 T02270012  RH  024%=      5-min Rain = 0
KCR2 181850Z 28025KT 23/01 A2986 RMK A01 T02250010  RH  024%=      5-min Rain = 0
KCR2 181851Z 28025KT 22/01 A2986 RMK A01 T02240011  RH  024%=      5-min Rain = 0
KCR2 181852Z 27023KT 23/01 A2986 RMK A01 T02250012  RH  024%=      5-min Rain = 0
KCR2 181853Z 27024G32KT 23/01 A2986 RMK A01 T02260009  RH  024%=      5-min Rain = 0
KCR2 181854Z 27024G29KT 23/01 A2986 RMK A01 T02260010  RH  024%=      5-min Rain = 0
KCR2 181855Z 28024G30KT 23/01 A2985 RMK A01 T02270010  RH  024%=      5-min Rain = 0
KCR2 181856Z 28025KT 23/01 A2985 RMK A01 T02270010  RH  024%=      5-min Rain = 0
KCR2 181857Z 27021KT 23/01 A2985 RMK A01 T02270010  RH  024%=      5-min Rain = 0
KCR2 181858Z 28023KT 23/01 A2985 RMK A01 T02280011  RH  024%=      5-min Rain = 0
KCR2 181859Z 27027KT 23/01 A2985 RMK A01 T02280011  RH  024%=      5-min Rain = 0
KCR2 181900Z 27019G24KT 23/01 A2985 RMK A01 T02280011  RH  024%=      5-min Rain = 0
KCR2 181901Z 26026G32KT 23/01 A2985 RMK A01 T02280010  RH  024%=      5-min Rain = 0
KCR2 181902Z 26027KT 23/01 A2985 RMK A01 T02270006  RH  023%=      5-min Rain = 0
KCR2 181903Z 26025KT 23/01 A2985 RMK A01 T02250007  RH  024%=      5-min Rain = 0
KCR2 181904Z 27024G29KT 23/01 A2984 RMK A01 T02250008  RH  024%=      5-min Rain = 0
KCR2 181905Z 27025G30KT 23/01 A2984 RMK A01 T02250006  RH  024%=      5-min Rain = 0
KCR2 181906Z 28023KT 22/01 A2984 RMK A01 T02240007  RH  024%=      5-min Rain = 0
KCR2 181907Z 27024KT 23/01 A2984 RMK A01 T02250006  RH  023%=      5-min Rain = 0
KCR2 181908Z 27019KT 23/01 A2984 RMK A01 T02260008  RH  024%=      5-min Rain = 0
KCR2 181909Z 26025KT 23/01 A2984 RMK A01 T02290010  RH  024%=      5-min Rain = 0
KCR2 181910Z 27026G31KT 23/01 A2984 RMK A01 T02290009  RH  023%=      5-min Rain = 0
KCR2 181911Z 26027G34KT 23/01 A2984 RMK A01 T02290008  RH  023%=      5-min Rain = 0
KCR2 181912Z 27026G33KT 23/01 A2984 RMK A01 T02280007  RH  023%=      5-min Rain = 0
KCR2 181913Z 26027G32KT 23/01 A2984 RMK A01 T02280006  RH  023%=      5-min Rain = 0
KCR2 181914Z 27024G31KT 23/01 A2984 RMK A01 T02290008  RH  023%=      5-min Rain = 0
KCR2 181915Z 27025KT 23/01 A2984 RMK A01 T02300006  RH  023%=      5-min Rain = 0
KCR2 181916Z 27022G29KT 23/01 A2984 RMK A01 T02280007  RH  023%=      5-min Rain = 0
KCR2 181917Z 27026KT 23/01 A2984 RMK A01 T02290008  RH  023%=      5-min Rain = 0
KCR2 181918Z 27027G33KT 23/01 A2984 RMK A01 T02290007  RH  023%=      5-min Rain = 0
KCR2 181919Z 27025G30KT 23/01 A2984 RMK A01 T02290007  RH  023%=      5-min Rain = 0
KCR2 181920Z 27026KT 23/01 A2984 RMK A01 T02300006  RH  023%=      5-min Rain = 0
KCR2 181921Z 27026KT 23/01 A2983 RMK A01 T02300005  RH  023%=      5-min Rain = 0
KCR2 181922Z 27026G31KT 23/01 A2983 RMK A01 T02300005  RH  023%=      5-min Rain = 0
KCR2 181923Z 26024G30KT 23/01 A2983 RMK A01 T02300008  RH  023%=      5-min Rain = 0
KCR2 181924Z 28024G31KT 23/01 A2983 RMK A01 T02320009  RH  023%=      5-min Rain = 0
KCR2 181925Z 28026G33KT 23/01 A2983 RMK A01 T02330009  RH  023%=      5-min Rain = 0
KCR2 181926Z 29023KT 23/01 A2983 RMK A01 T02320009  RH  023%=      5-min Rain = 0
KCR2 181927Z 28024G29KT 23/01 A2983 RMK A01 T02320008  RH  023%=      5-min Rain = 0
KCR2 181928Z 28028G36KT 23/01 A2983 RMK A01 T02320008  RH  023%=      5-min Rain = 0
KCR2 181929Z 29032G37KT 23/01 A2983 RMK A01 T02310007  RH  023%=      5-min Rain = 0
KCR2 181930Z 28027G33KT 23/01 A2983 RMK A01 T02280005  RH  023%=      5-min Rain = 0
KCR2 181931Z 28020G25KT 23/01 A2982 RMK A01 T02260007  RH  023%=      5-min Rain = 0
KCR2 181932Z 28023G31KT 23/01 A2982 RMK A01 T02270009  RH  024%=      5-min Rain = 0
KCR2 181933Z 28028KT 23/01 A2982 RMK A01 T02260005  RH  023%=      5-min Rain = 0
KCR2 181934Z 27027KT 22/01 A2982 RMK A01 T02240006  RH  024%=      5-min Rain = 0
KCR2 181935Z 27022KT 22/01 A2982 RMK A01 T02240007  RH  024%=      5-min Rain = 0
KCR2 181936Z 27024KT 22/01 A2982 RMK A01 T02240007  RH  024%=      5-min Rain = 0
KCR2 181937Z 27028KT 22/01 A2982 RMK A01 T02230005  RH  023%=      5-min Rain = 0
KCR2 181938Z 27026G31KT 22/01 A2982 RMK A01 T02220006  RH  024%=      5-min Rain = 0
KCR2 181939Z 27023G31KT 22/01 A2982 RMK A01 T02220006  RH  024%=      5-min Rain = 0
KCR2 181940Z 27026KT 22/01 A2982 RMK A01 T02240007  RH  024%=      5-min Rain = 0
KCR2 181941Z 28026G31KT 23/01 A2982 RMK A01 T02250007  RH  024%=      5-min Rain = 0
KCR2 181942Z 28022KT 22/01 A2982 RMK A01 T02240007  RH  024%=      5-min Rain = 0
KCR2 181943Z 27021KT 22/01 A2982 RMK A01 T02240008  RH  024%=      5-min Rain = 0
KCR2 181944Z 27022KT 23/01 A2982 RMK A01 T02250008  RH  024%=      5-min Rain = 0
KCR2 181945Z 26023KT 23/01 A2981 RMK A01 T02260007  RH  023%=      5-min Rain = 0
KCR2 181946Z 28021G27KT 23/01 A2981 RMK A01 T02270009  RH  024%=      5-min Rain = 0
KCR2 181947Z 27021G26KT 23/01 A2981 RMK A01 T02290010  RH  023%=      5-min Rain = 0
KCR2 181948Z 27021KT 23/01 A2981 RMK A01 T02290009  RH  023%=      5-min Rain = 0
KCR2 181949Z 28023KT 23/01 A2981 RMK A01 T02280009  RH  023%=      5-min Rain = 0
KCR2 181950Z 28022KT 23/01 A2981 RMK A01 T02270008  RH  023%=      5-min Rain = 0
KCR2 181951Z 28024G31KT 23/01 A2981 RMK A01 T02270008  RH  024%=      5-min Rain = 0
KCR2 181952Z 29023G30KT 23/01 A2981 RMK A01 T02260008  RH  024%=      5-min Rain = 0
KCR2 181953Z 27024G29KT 22/01 A2981 RMK A01 T02240006  RH  024%=      5-min Rain = 0
KCR2 181954Z 27026KT 22/01 A2982 RMK A01 T02230006  RH  024%=      5-min Rain = 0
KCR2 181955Z 26025G34KT 22/01 A2982 RMK A01 T02230005  RH  023%=      5-min Rain = 0
KCR2 181956Z 27023G31KT 22/01 A2981 RMK A01 T02220005  RH  024%=      5-min Rain = 0
KCR2 181957Z 27023G29KT 22/01 A2981 RMK A01 T02220006  RH  024%=      5-min Rain = 0
KCR2 181958Z 27026G33KT 22/01 A2981 RMK A01 T02220005  RH  024%=      5-min Rain = 0
KCR2 181959Z 27025KT 22/00 A2981 RMK A01 T02210004  RH  024%=      5-min Rain = 0
KCR2 182000Z 28026KT 22/00 A2981 RMK A01 T02190003  RH  024%=      5-min Rain = 0
KCR2 182001Z 28023G28KT 22/00 A2981 RMK A01 T02180004  RH  024%=      5-min Rain = 0
KCR2 182002Z 27021G29KT 22/00 A2981 RMK A01 T02180004  RH  024%=      5-min Rain = 0
KCR2 182003Z 27022G27KT 22/00 A298 RMK A01 T02180004  RH  024%=      5-min Rain = 0
KCR2 182004Z 27023G28KT 22/01 A298 RMK A01 T02180005  RH  024%=      5-min Rain = 0
KCR2 182005Z 26026G32KT 22/01 A298 RMK A01 T02180005  RH  024%=      5-min Rain = 0
KCR2 182006Z 27027G32KT 22/00 A2981 RMK A01 T02180004  RH  024%=      5-min Rain = 0
KCR2 182007Z 27022KT 22/01 A2981 RMK A01 T02180005  RH  024%=      5-min Rain = 0
KCR2 182008Z 27019KT 22/00 A2981 RMK A01 T02180004  RH  024%=      5-min Rain = 0
KCR2 182009Z 29018G23KT 22/01 A2981 RMK A01 T02180006  RH  024%=      5-min Rain = 0
KCR2 182010Z 29024KT 22/01 A2981 RMK A01 T02180006  RH  024%=      5-min Rain = 0
KCR2 182011Z 29022KT 22/01 A2981 RMK A01 T02170006  RH  025%=      5-min Rain = 0
KCR2 182012Z 28020KT 22/01 A2981 RMK A01 T02160006  RH  025%=      5-min Rain = 0
KCR2 182013Z 29018G23KT 22/01 A2981 RMK A01 T02160006  RH  025%=      5-min Rain = 0
KCR2 182014Z 28017G23KT 22/01 A2981 RMK A01 T02170007  RH  025%=      5-min Rain = 0
KCR2 182015Z 29020KT 22/01 A298 RMK A01 T02180007  RH  025%=      5-min Rain = 0
KCR2 182016Z 27015KT 22/01 A298 RMK A01 T02180007  RH  025%=      5-min Rain = 0
KCR2 182017Z 27017KT 22/01 A298 RMK A01 T02190007  RH  025%=      5-min Rain = 0
KCR2 182018Z 28020KT 22/01 A298 RMK A01 T02200006  RH  024%=      5-min Rain = 0
KCR2 182019Z 29022G27KT 22/01 A298 RMK A01 T02200006  RH  024%=      5-min Rain = 0
KCR2 182020Z 28022G27KT 22/01 A298 RMK A01 T02200005  RH  024%=      5-min Rain = 0
KCR2 182021Z 28024KT 22/01 A298 RMK A01 T02190006  RH  024%=      5-min Rain = 0
KCR2 182022Z 27020G27KT 22/01 A298 RMK A01 T02200006  RH  024%=      5-min Rain = 0
KCR2 182023Z 27020G26KT 22/01 A298 RMK A01 T02210005  RH  024%=      5-min Rain = 0
KCR2 182024Z 27020G28KT 22/01 A298 RMK A01 T02220006  RH  024%=      5-min Rain = 0
KCR2 182025Z 28022G29KT 22/01 A298 RMK A01 T02230005  RH  024%=      5-min Rain = 0
KCR2 182026Z 28023G30KT 22/01 A298 RMK A01 T02230005  RH  024%=      5-min Rain = 0
KCR2 182027Z 28019KT 22/01 A298 RMK A01 T02230006  RH  024%=      5-min Rain = 0
KCR2 182028Z 27022KT 22/01 A298 RMK A01 T02220006  RH  024%=      5-min Rain = 0
KCR2 182029Z 28016G22KT 22/01 A298 RMK A01 T02220007  RH  024%=      5-min Rain = 0
KCR2 182030Z 28020KT 22/01 A298 RMK A01 T02240008  RH  024%=      5-min Rain = 0
KCR2 182031Z 28019KT 23/01 A298 RMK A01 T02250009  RH  024%=      5-min Rain = 0
KCR2 182032Z 27018G23KT 23/01 A2979 RMK A01 T02270009  RH  024%=      5-min Rain = 0
KCR2 182033Z 28021G28KT 23/01 A2979 RMK A01 T02270008  RH  023%=      5-min Rain = 0
KCR2 182034Z 28024G29KT 23/01 A2979 RMK A01 T02260008  RH  024%=      5-min Rain = 0
KCR2 182035Z 28023G28KT 22/01 A2979 RMK A01 T02240008  RH  024%=      5-min Rain = 0
KCR2 182036Z 28024KT 22/01 A2979 RMK A01 T02240008  RH  024%=      5-min Rain = 0
KCR2 182037Z 28023KT 22/01 A2979 RMK A01 T02240008  RH  024%=      5-min Rain = 0
KCR2 182038Z 28021KT 22/01 A2979 RMK A01 T02240008  RH  024%=      5-min Rain = 0
KCR2 182039Z 26022KT 23/01 A2979 RMK A01 T02250008  RH  024%=      5-min Rain = 0
KCR2 182040Z 27023KT 23/01 A2979 RMK A01 T02260009  RH  024%=      5-min Rain = 0
KCR2 182041Z 27022G28KT 23/01 A2979 RMK A01 T02260008  RH  024%=      5-min Rain = 0
KCR2 182042Z 28021KT 23/01 A2979 RMK A01 T02250008  RH  024%=      5-min Rain = 0
KCR2 182043Z 28022KT 22/01 A2979 RMK A01 T02240009  RH  024%=      5-min Rain = 0
KCR2 182044Z 28023KT 22/01 A2979 RMK A01 T02240009  RH  024%=      5-min Rain = 0
KCR2 182045Z 27022KT 23/01 A2979 RMK A01 T02250009  RH  024%=      5-min Rain = 0
KCR2 182046Z 27020G26KT 23/01 A2978 RMK A01 T02250008  RH  024%=      5-min Rain = 0
KCR2 182047Z 27021KT 23/01 A2978 RMK A01 T02250009  RH  024%=      5-min Rain = 0
KCR2 182048Z 26024KT 23/01 A2978 RMK A01 T02270008  RH  024%=      5-min Rain = 0
KCR2 182049Z 26022G27KT 23/01 A2978 RMK A01 T02270008  RH  023%=      5-min Rain = 0
KCR2 182050Z 27018KT 23/01 A2978 RMK A01 T02280009  RH  023%=      5-min Rain = 0
KCR2 182051Z 28018KT 23/01 A2978 RMK A01 T02280008  RH  023%=      5-min Rain = 0
KCR2 182052Z 29020KT 23/01 A2978 RMK A01 T02270009  RH  024%=      5-min Rain = 0
KCR2 182053Z 29021G26KT 23/01 A2978 RMK A01 T02260007  RH  023%=      5-min Rain = 0
KCR2 182054Z 27020G25KT 22/01 A2978 RMK A01 T02240006  RH  023%=      5-min Rain = 0
KCR2 182055Z 28019KT 23/01 A2978 RMK A01 T02250007  RH  024%=      5-min Rain = 0
KCR2 182056Z 29019KT 23/01 A2978 RMK A01 T02260009  RH  024%=      5-min Rain = 0
KCR2 182057Z 28021G26KT 23/01 A2978 RMK A01 T02270006  RH  023%=      5-min Rain = 0
KCR2 182058Z 29020KT 23/01 A2978 RMK A01 T02270007  RH  023%=      5-min Rain = 0
KCR2 182059Z 29022KT 23/01 A2978 RMK A01 T02270006  RH  023%=      5-min Rain = 0
KCR2 182100Z 28024G29KT 23/01 A2978 RMK A01 T02270007  RH  023%=      5-min Rain = 0
KCR2 182101Z 28023KT 23/01 A2978 RMK A01 T02270005  RH  023%=      5-min Rain = 0
KCR2 182102Z 28023G29KT 23/01 A2978 RMK A01 T02260005  RH  023%=      5-min Rain = 0
KCR2 182103Z 28022KT 23/01 A2977 RMK A01 T02250005  RH  023%=      5-min Rain = 0
KCR2 182104Z 28021G27KT 23/00 A2977 RMK A01 T02250004  RH  023%=      5-min Rain = 0
KCR2 182105Z 28018KT 23/01 A2977 RMK A01 T02270007  RH  023%=      5-min Rain = 0
KCR2 182106Z 28018KT 23/01 A2977 RMK A01 T02280005  RH  023%=      5-min Rain = 0
KCR2 182107Z 30020KT 23/01 A2977 RMK A01 T02280006  RH  023%=      5-min Rain = 0
KCR2 182108Z 29021KT 23/01 A2977 RMK A01 T02290006  RH  023%=      5-min Rain = 0
KCR2 182109Z 29024G31KT 23/00 A2977 RMK A01 T02280004  RH  023%=      5-min Rain = 0
KCR2 182110Z 29028G35KT 23/00 A2977 RMK A01 T02260004  RH  023%=      5-min Rain = 0
KCR2 182111Z 28027KT 23/00 A2977 RMK A01 T02260003  RH  023%=      5-min Rain = 0
KCR2 182112Z 29026G31KT 23/00 A2978 RMK A01 T02260003  RH  023%=      5-min Rain = 0
KCR2 182113Z 29026KT 23/00 A2978 RMK A01 T02250004  RH  023%=      5-min Rain = 0
KCR2 182114Z 28023KT 23/00 A2977 RMK A01 T02250003  RH  023%=      5-min Rain = 0
KCR2 182115Z 28019G25KT 23/00 A2977 RMK A01 T02250004  RH  023%=      5-min Rain = 0
KCR2 182116Z 28017G22KT 23/01 A2977 RMK A01 T02270008  RH  024%=      5-min Rain = 0
KCR2 182117Z 28020G26KT 23/01 A2977 RMK A01 T02280007  RH  023%=      5-min Rain = 0
KCR2 182118Z 28020KT 23/01 A2977 RMK A01 T02280005  RH  023%=      5-min Rain = 0
KCR2 182119Z 27024G31KT 23/00 A2978 RMK A01 T02280004  RH  023%=      5-min Rain = 0
KCR2 182120Z 27020KT 23/00 A2977 RMK A01 T02260004  RH  023%=      5-min Rain = 0
KCR2 182121Z 27020G25KT 23/01 A2977 RMK A01 T02260005  RH  023%=      5-min Rain = 0
KCR2 182122Z 28021KT 23/01 A2977 RMK A01 T02260005  RH  023%=      5-min Rain = 0
KCR2 182123Z 28019KT 23/01 A2978 RMK A01 T02270005  RH  023%=      5-min Rain = 0
KCR2 182124Z 29019KT 23/01 A2977 RMK A01 T02280008  RH  023%=      5-min Rain = 0
KCR2 182125Z 29023KT 23/01 A2977 RMK A01 T02290006  RH  023%=      5-min Rain = 0
KCR2 182126Z 29029G34KT 23/01 A2978 RMK A01 T02280005  RH  023%=      5-min Rain = 0
KCR2 182127Z 29028KT 23/00 A2978 RMK A01 T02280004  RH  023%=      5-min Rain = 0
KCR2 182128Z 29025G30KT 23/00 A2978 RMK A01 T02260004  RH  023%=      5-min Rain = 0
KCR2 182129Z 29027KT 23/00 A2977 RMK A01 T02260003  RH  023%=      5-min Rain = 0
KCR2 182130Z 28027G35KT 23/00 A2977 RMK A01 T02250003  RH  023%=      5-min Rain = 0
KCR2 182131Z 28029G35KT 23/00 A2977 RMK A01 T02250002  RH  023%=      5-min Rain = 0
KCR2 182132Z 29027G33KT 23/00 A2977 RMK A01 T02250003  RH  023%=      5-min Rain = 0
KCR2 182133Z 28024G31KT 23/00 A2977 RMK A01 T02250003  RH  023%=      5-min Rain = 0
KCR2 182134Z 29024KT 23/00 A2977 RMK A01 T02250003  RH  023%=      5-min Rain = 0
KCR2 182135Z 29028KT 23/00 A2977 RMK A01 T02250003  RH  023%=      5-min Rain = 0
KCR2 182136Z 29026G31KT 23/00 A2977 RMK A01 T02250003  RH  023%=      5-min Rain = 0
KCR2 182137Z 29025KT 23/00 A2978 RMK A01 T02250003  RH  023%=      5-min Rain = 0
KCR2 182138Z 28021G26KT 23/00 A2978 RMK A01 T02250004  RH  023%=      5-min Rain = 0
KCR2 182139Z 29021G26KT 23/01 A2978 RMK A01 T02260006  RH  023%=      5-min Rain = 0
KCR2 182140Z 28021G26KT 23/01 A2978 RMK A01 T02270005  RH  023%=      5-min Rain = 0
KCR2 182141Z 28020G26KT 23/01 A2978 RMK A01 T02280006  RH  023%=      5-min Rain = 0
KCR2 182142Z 27022G28KT 23/01 A2978 RMK A01 T02280005  RH  023%=      5-min Rain = 0
KCR2 182143Z 28023G28KT 23/00 A2978 RMK A01 T02280002  RH  022%=      5-min Rain = 0
KCR2 182144Z 28024G29KT 23/00 A2978 RMK A01 T02270003  RH  023%=      5-min Rain = 0
KCR2 182145Z 29026G33KT 23/00 A2978 RMK A01 T02270002  RH  023%=      5-min Rain = 0
KCR2 182146Z 30027KT 23/00 A2978 RMK A01 T02270001  RH  022%=      5-min Rain = 0
KCR2 182147Z 29024KT 23/00 A2978 RMK A01 T02260002  RH  023%=      5-min Rain = 0
KCR2 182148Z 29027G32KT 23/00 A2978 RMK A01 T02260001  RH  022%=      5-min Rain = 0
KCR2 182149Z 29025KT 23/00 A2978 RMK A01 T02260002  RH  023%=      5-min Rain = 0
KCR2 182150Z 29026G33KT 23/00 A2978 RMK A01 T02250002  RH  023%=      5-min Rain = 0
KCR2 182151Z 29026KT 23/00 A2978 RMK A01 T02260002  RH  023%=      5-min Rain = 0
KCR2 182152Z 29024G30KT 23/00 A2978 RMK A01 T02250002  RH  023%=      5-min Rain = 0
KCR2 182153Z 29023KT 23/00 A2978 RMK A01 T02250003  RH  023%=      5-min Rain = 0
KCR2 182154Z 29022KT 23/00 A2978 RMK A01 T02260003  RH  023%=      5-min Rain = 0
KCR2 182155Z 28022KT 23/00 A2978 RMK A01 T02250003  RH  023%=      5-min Rain = 0
KCR2 182156Z 28020KT 23/00 A2978 RMK A01 T02250002  RH  023%=      5-min Rain = 0
KCR2 182157Z 29018G24KT 23/01 A2978 RMK A01 T02250005  RH  023%=      5-min Rain = 0
KCR2 182158Z 28020KT 23/00 A2978 RMK A01 T02260004  RH  023%=      5-min Rain = 0
KCR2 182159Z 29020KT 23/00 A2978 RMK A01 T02260003  RH  023%=      5-min Rain = 0
KCR2 182200Z 28016KT 23/01 A2978 RMK A01 T02260005  RH  023%=      5-min Rain = 0
KCR2 182201Z 29018KT 23/01 A2978 RMK A01 T02260007  RH  023%=      5-min Rain = 0
KCR2 182202Z 29020KT 23/01 A2978 RMK A01 T02270006  RH  023%=      5-min Rain = 0
KCR2 182203Z 29020KT 23/01 A2978 RMK A01 T02260005  RH  023%=      5-min Rain = 0
KCR2 182204Z 28016G21KT 23/00 A2978 RMK A01 T02250004  RH  023%=      5-min Rain = 0
KCR2 182205Z 28016KT 23/01 A2978 RMK A01 T02270005  RH  023%=      5-min Rain = 0
KCR2 182206Z 28019G24KT 23/01 A2978 RMK A01 T02280006  RH  023%=      5-min Rain = 0
KCR2 182207Z 28023G28KT 23/01 A2978 RMK A01 T02290005  RH  023%=      5-min Rain = 0
KCR2 182208Z 28028KT 23/00 A2978 RMK A01 T02290003  RH  022%=      5-min Rain = 0
KCR2 182209Z 29025G32KT 23/00 A2978 RMK A01 T02280002  RH  022%=      5-min Rain = 0
KCR2 182210Z 29022G28KT 23/00 A2978 RMK A01 T02270004  RH  023%=      5-min Rain = 0
KCR2 182211Z 28022KT 23/00 A2978 RMK A01 T02280003  RH  022%=      5-min Rain = 0
KCR2 182212Z 28019KT 23/00 A2978 RMK A01 T02280003  RH  023%=      5-min Rain = 0
KCR2 182213Z 28022KT 23/00 A2978 RMK A01 T02280002  RH  022%=      5-min Rain = 0
KCR2 182214Z 27021KT 23/00 A2978 RMK A01 T02270002  RH  022%=      5-min Rain = 0
KCR2 182215Z 28022KT 23/00 A2978 RMK A01 T02280002  RH  022%=      5-min Rain = 0
KCR2 182216Z 29017KT 23/01 A2978 RMK A01 T02280005  RH  023%=      5-min Rain = 0
KCR2 182217Z 29020G27KT 23/01 A2978 RMK A01 T02290006  RH  023%=      5-min Rain = 0
KCR2 182218Z 29026KT 23/00 A2978 RMK A01 T02290003  RH  022%=      5-min Rain = 0
KCR2 182219Z 28024KT 23/00 A2978 RMK A01 T02270002  RH  022%=      5-min Rain = 0
KCR2 182220Z 28020KT 23/00 A2978 RMK A01 T02260002  RH  023%=      5-min Rain = 0
KCR2 182221Z 29017KT 23/00 A2978 RMK A01 T02260004  RH  023%=      5-min Rain = 0
KCR2 182222Z 29020KT 23/01 A2978 RMK A01 T02270005  RH  023%=      5-min Rain = 0
KCR2 182223Z 29019G24KT 23/01 A2977 RMK A01 T02270005  RH  023%=      5-min Rain = 0
KCR2 182224Z 28021G29KT 23/00 A2977 RMK A01 T02270003  RH  023%=      5-min Rain = 0
KCR2 182225Z 29028G35KT 23/00 A2977 RMK A01 T02270002  RH  023%=      5-min Rain = 0
KCR2 182226Z 29029KT 23/00 A2977 RMK A01 T02260002  RH  023%=      5-min Rain = 0
KCR2 182227Z 29029KT 23/00 A2977 RMK A01 T02250001  RH  023%=      5-min Rain = 0
KCR2 182228Z 29024G29KT 22/00 A2977 RMK A01 T02240001  RH  023%=      5-min Rain = 0
KCR2 182229Z 29025KT 22/00 A2977 RMK A01 T02240003  RH  023%=      5-min Rain = 0
KCR2 182230Z 30023G28KT 23/00 A2977 RMK A01 T02250003  RH  023%=      5-min Rain = 0
KCR2 182231Z 30024G31KT 22/00 A2977 RMK A01 T02240003  RH  023%=      5-min Rain = 0
KCR2 182232Z 30026KT 22/00 A2977 RMK A01 T02240002  RH  023%=      5-min Rain = 0
KCR2 182233Z 30024KT 22/00 A2977 RMK A01 T02230002  RH  023%=      5-min Rain = 0
KCR2 182234Z 31021G26KT 22/00 A2977 RMK A01 T02230003  RH  023%=      5-min Rain = 0
KCR2 182235Z 30021G30KT 22/00 A2977 RMK A01 T02230004  RH  023%=      5-min Rain = 0
KCR2 182236Z 31024G30KT 22/00 A2978 RMK A01 T02230004  RH  023%=      5-min Rain = 0
KCR2 182237Z 30028KT 22/00 A2978 RMK A01 T02230003  RH  023%=      5-min Rain = 0
KCR2 182238Z 30019G25KT 22/00 A2978 RMK A01 T02220003  RH  023%=      5-min Rain = 0
KCR2 182239Z 30021G26KT 22/00 A2978 RMK A01 T02220004  RH  024%=      5-min Rain = 0
KCR2 182240Z 30023G28KT 22/01 A2978 RMK A01 T02220005  RH  024%=      5-min Rain = 0
KCR2 182241Z 30024KT 22/01 A2978 RMK A01 T02220005  RH  024%=      5-min Rain = 0
KCR2 182242Z 29024G31KT 22/01 A2978 RMK A01 T02220006  RH  024%=      5-min Rain = 0
KCR2 182243Z 30023G28KT 22/01 A2978 RMK A01 T02220007  RH  024%=      5-min Rain = 0
KCR2 182244Z 30022G31KT 22/01 A2978 RMK A01 T02210007  RH  024%=      5-min Rain = 0
KCR2 182245Z 29025KT 22/01 A2978 RMK A01 T02200006  RH  024%=      5-min Rain = 0
KCR2 182246Z 29024G30KT 22/01 A2978 RMK A01 T02190005  RH  024%=      5-min Rain = 0
KCR2 182247Z 29022G28KT 22/01 A2978 RMK A01 T02190005  RH  024%=      5-min Rain = 0
KCR2 182248Z 30020G25KT 22/01 A2978 RMK A01 T02180006  RH  024%=      5-min Rain = 0
KCR2 182249Z 30025KT 22/01 A2978 RMK A01 T02180006  RH  024%=      5-min Rain = 0
KCR2 182250Z 30017KT 22/01 A2978 RMK A01 T02180006  RH  024%=      5-min Rain = 0
KCR2 182251Z 29019G25KT 22/01 A2978 RMK A01 T02180007  RH  025%=      5-min Rain = 0
KCR2 182252Z 29020KT 22/01 A2978 RMK A01 T02190006  RH  024%=      5-min Rain = 0
KCR2 182253Z 29019KT 22/01 A2979 RMK A01 T02180006  RH  024%=      5-min Rain = 0
KCR2 182254Z 29021G30KT 22/01 A2979 RMK A01 T02190006  RH  024%=      5-min Rain = 0
KCR2 182255Z 30020KT 22/01 A2979 RMK A01 T02190008  RH  025%=      5-min Rain = 0
KCR2 182256Z 31021KT 22/01 A2979 RMK A01 T02180009  RH  025%=      5-min Rain = 0
KCR2 182257Z 31018G23KT 22/01 A2978 RMK A01 T02180010  RH  025%=      5-min Rain = 0
KCR2 182258Z 30017KT 22/01 A2979 RMK A01 T02170010  RH  025%=      5-min Rain = 0
KCR2 182259Z 29018G26KT 22/01 A2979 RMK A01 T02180011  RH  025%=      5-min Rain = 0
KCR2 182300Z 30017KT 22/01 A2978 RMK A01 T02180010  RH  025%=      5-min Rain = 0
KCR2 182301Z 30019G24KT 22/01 A2978 RMK A01 T02180009  RH  025%=      5-min Rain = 0
KCR2 182302Z 30025KT 22/01 A2978 RMK A01 T02190008  RH  025%=      5-min Rain = 0
KCR2 182303Z 31026G32KT 22/01 A2979 RMK A01 T02190007  RH  025%=      5-min Rain = 0
KCR2 182304Z 31025G31KT 22/01 A2979 RMK A01 T02190008  RH  025%=      5-min Rain = 0
KCR2 182305Z 30023G28KT 22/01 A2979 RMK A01 T02180009  RH  025%=      5-min Rain = 0
KCR2 182306Z 30020KT 22/01 A2978 RMK A01 T02180009  RH  025%=      5-min Rain = 0
KCR2 182307Z 30023G28KT 22/01 A2978 RMK A01 T02170009  RH  025%=      5-min Rain = 0
KCR2 182308Z 30027KT 22/01 A2978 RMK A01 T02170010  RH  025%=      5-min Rain = 0
KCR2 182309Z 30023KT 22/01 A2978 RMK A01 T02160009  RH  025%=      5-min Rain = 0
KCR2 182310Z 30021G27KT 22/01 A2978 RMK A01 T02150010  RH  026%=      5-min Rain = 0
KCR2 182311Z 30023KT 22/01 A2978 RMK A01 T02150011  RH  026%=      5-min Rain = 0
KCR2 182312Z 30023G28KT 21/01 A2978 RMK A01 T02140010  RH  026%=      5-min Rain = 0
KCR2 182313Z 30019G24KT 21/01 A2978 RMK A01 T02140011  RH  026%=      5-min Rain = 0
KCR2 182314Z 29022KT 21/01 A2978 RMK A01 T02130011  RH  026%=      5-min Rain = 0
KCR2 182315Z 30021KT 21/01 A2978 RMK A01 T02130012  RH  026%=      5-min Rain = 0
KCR2 182316Z 30021KT 21/01 A2978 RMK A01 T02130012  RH  026%=      5-min Rain = 0
KCR2 182317Z 29019KT 21/01 A2977 RMK A01 T02120011  RH  026%=      5-min Rain = 0
KCR2 182318Z 29022KT 21/01 A2978 RMK A01 T02130012  RH  026%=      5-min Rain = 0
KCR2 182319Z 30021G26KT 21/01 A2977 RMK A01 T02120013  RH  027%=      5-min Rain = 0
KCR2 182320Z 29023KT 21/01 A2978 RMK A01 T02120013  RH  027%=      5-min Rain = 0
KCR2 182321Z 30025G32KT 21/01 A2978 RMK A01 T02120013  RH  027%=      5-min Rain = 0
KCR2 182322Z 30024G31KT 21/01 A2978 RMK A01 T02120013  RH  027%=      5-min Rain = 0
KCR2 182323Z 29023G28KT 21/01 A2977 RMK A01 T02120014  RH  027%=      5-min Rain = 0
KCR2 182324Z 29027G35KT 21/01 A2978 RMK A01 T02110014  RH  027%=      5-min Rain = 0
KCR2 182325Z 30022G27KT 21/01 A2977 RMK A01 T02110014  RH  027%=      5-min Rain = 0
KCR2 182326Z 30024G29KT 21/02 A2977 RMK A01 T02100015  RH  027%=      5-min Rain = 0
KCR2 182327Z 30024G31KT 21/02 A2977 RMK A01 T02100015  RH  027%=      5-min Rain = 0
KCR2 182328Z 29019G26KT 21/02 A2977 RMK A01 T02090015  RH  027%=      5-min Rain = 0
KCR2 182329Z 30019G25KT 21/02 A2977 RMK A01 T02090015  RH  028%=      5-min Rain = 0
KCR2 182330Z 30018KT 21/02 A2977 RMK A01 T02090016  RH  028%=      5-min Rain = 0
KCR2 182331Z 30018KT 21/02 A2977 RMK A01 T02090016  RH  028%=      5-min Rain = 0
KCR2 182332Z 30021G26KT 21/02 A2977 RMK A01 T02080016  RH  028%=      5-min Rain = 0
KCR2 182333Z 30022G31KT 21/02 A2977 RMK A01 T02080015  RH  028%=      5-min Rain = 0
KCR2 182334Z 30024G29KT 21/02 A2977 RMK A01 T02080015  RH  028%=      5-min Rain = 0
KCR2 182335Z 30024G30KT 21/01 A2977 RMK A01 T02080014  RH  028%=      5-min Rain = 0
KCR2 182336Z 30023G28KT 21/01 A2977 RMK A01 T02080014  RH  028%=      5-min Rain = 0
KCR2 182337Z 31028G33KT 21/02 A2977 RMK A01 T02070015  RH  028%=      5-min Rain = 0
KCR2 182338Z 31023G33KT 21/02 A2977 RMK A01 T02070016  RH  028%=      5-min Rain = 0
KCR2 182339Z 30023G30KT 21/02 A2977 RMK A01 T02060017  RH  028%=      5-min Rain = 0
KCR2 182340Z 30026G33KT 21/02 A2977 RMK A01 T02050017  RH  029%=      5-min Rain = 0
KCR2 182341Z 31026G32KT 21/02 A2977 RMK A01 T02050017  RH  029%=      5-min Rain = 0
KCR2 182342Z 31025G33KT 21/02 A2977 RMK A01 T02050017  RH  029%=      5-min Rain = 0
KCR2 182343Z 30029KT 21/02 A2978 RMK A01 T02050018  RH  029%=      5-min Rain = 0
KCR2 182344Z 30025G31KT 21/02 A2977 RMK A01 T02050018  RH  029%=      5-min Rain = 0
KCR2 182345Z 30026G32KT 21/02 A2978 RMK A01 T02050018  RH  029%=      5-min Rain = 0
KCR2 182346Z 32030G37KT 20/02 A2978 RMK A01 T02040019  RH  029%=      5-min Rain = 0
KCR2 182347Z 33027G37KT 20/02 A2979 RMK A01 T01980021  RH  031%=      5-min Rain = 0
KCR2 182348Z 34022G29KT 19/02 A2979 RMK A01 T01940021  RH  032%=      5-min Rain = 0
KCR2 182349Z 34025G30KT 19/02 A2979 RMK A01 T01900021  RH  032%=      5-min Rain = 0
KCR2 182350Z 34021G28KT 19/02 A2979 RMK A01 T01870021  RH  033%=      5-min Rain = 0
KCR2 182351Z 34021G29KT 18/02 A298 RMK A01 T01840020  RH  033%=      5-min Rain = 0
KCR2 182352Z 33019G25KT 18/02 A298 RMK A01 T01820020  RH  034%=      5-min Rain = 0
KCR2 182353Z 33022G27KT 18/02 A298 RMK A01 T01800019  RH  034%=      5-min Rain = 0
KCR2 182354Z 34025KT 18/02 A298 RMK A01 T01790018  RH  034%=      5-min Rain = 0
KCR2 182355Z 34024G29KT 18/02 A298 RMK A01 T01780018  RH  034%=      5-min Rain = 0
KCR2 182356Z 34024G30KT 18/02 A298 RMK A01 T01760017  RH  034%=      5-min Rain = 0
KCR2 182357Z 34021G28KT 18/02 A298 RMK A01 T01750017  RH  035%=      5-min Rain = 0
KCR2 182358Z 34021G28KT 17/02 A298 RMK A01 T01740017  RH  035%=      5-min Rain = 0
KCR2 182359Z 35017G25KT 17/02 A298 RMK A01 T01740017  RH  035%=      5-min Rain = 0
KCR2 190000Z 34020G27KT 17/02 A298 RMK A01 T01730016  RH  035%=      5-min Rain = 0
KCR2 190001Z 34017G23KT 17/02 A298 RMK A01 T01720016  RH  035%=      5-min Rain = 0
KCR2 190002Z 34019G24KT 17/02 A2981 RMK A01 T01720016  RH  035%=      5-min Rain = 0
KCR2 190003Z 34017G24KT 17/02 A298 RMK A01 T01710015  RH  035%=      5-min Rain = 0
KCR2 190004Z 34017G23KT 17/02 A2981 RMK A01 T01700015  RH  035%=      5-min Rain = 0
KCR2 190005Z 34022G27KT 17/02 A2981 RMK A01 T01700015  RH  035%=      5-min Rain = 0
KCR2 190006Z 34021G27KT 17/01 A2981 RMK A01 T01690014  RH  035%=      5-min Rain = 0
KCR2 190007Z 34024KT 17/01 A2981 RMK A01 T01690013  RH  035%=      5-min Rain = 0
KCR2 190008Z 34023G30KT 17/01 A2981 RMK A01 T01690013  RH  035%=      5-min Rain = 0
KCR2 190009Z 34022G28KT 17/01 A2981 RMK A01 T01690013  RH  035%=      5-min Rain = 0
KCR2 190010Z 34017G24KT 17/01 A2982 RMK A01 T01690013  RH  035%=      5-min Rain = 0
KCR2 190011Z 34020KT 17/01 A2982 RMK A01 T01680012  RH  035%=      5-min Rain = 0
KCR2 190012Z 34020KT 17/01 A2982 RMK A01 T01680012  RH  035%=      5-min Rain = 0
KCR2 190013Z 34017G22KT 17/01 A2982 RMK A01 T01680012  RH  035%=      5-min Rain = 0
KCR2 190014Z 35016G22KT 17/01 A2982 RMK A01 T01670012  RH  035%=      5-min Rain = 0
KCR2 190015Z 34019G24KT 17/01 A2982 RMK A01 T01660012  RH  035%=      5-min Rain = 0
KCR2 190016Z 34016KT 17/01 A2982 RMK A01 T01660012  RH  035%=      5-min Rain = 0
KCR2 190017Z 34016G21KT 17/01 A2983 RMK A01 T01650011  RH  035%=      5-min Rain = 0
KCR2 190018Z 34020KT 17/01 A2983 RMK A01 T01650011  RH  035%=      5-min Rain = 0
KCR2 190019Z 35019G24KT 17/01 A2983 RMK A01 T01650010  RH  035%=      5-min Rain = 0
KCR2 190020Z 35021KT 17/01 A2983 RMK A01 T01650010  RH  035%=      5-min Rain = 0
KCR2 190021Z 35018G24KT 17/01 A2983 RMK A01 T01650009  RH  035%=      5-min Rain = 0
KCR2 190022Z 35019KT 17/01 A2983 RMK A01 T01650009  RH  035%=      5-min Rain = 0
KCR2 190023Z 34019KT 16/01 A2983 RMK A01 T01640009  RH  035%=      5-min Rain = 0
KCR2 190024Z 34019KT 16/01 A2984 RMK A01 T01640008  RH  035%=      5-min Rain = 0
KCR2 190025Z 35017KT 16/01 A2984 RMK A01 T01640008  RH  035%=      5-min Rain = 0
KCR2 190026Z 34016G23KT 16/01 A2983 RMK A01 T01640008  RH  035%=      5-min Rain = 0
KCR2 190027Z 35015KT 16/01 A2983 RMK A01 T01630008  RH  035%=      5-min Rain = 0
KCR2 190028Z 34018G24KT 16/01 A2983 RMK A01 T01630007  RH  035%=      5-min Rain = 0
KCR2 190029Z 34018KT 16/01 A2984 RMK A01 T01630007  RH  035%=      5-min Rain = 0
KCR2 190030Z 34017KT 16/01 A2983 RMK A01 T01620006  RH  035%=      5-min Rain = 0
KCR2 190031Z 34015KT 16/01 A2984 RMK A01 T01630007  RH  035%=      5-min Rain = 0
KCR2 190032Z 33019KT 16/01 A2984 RMK A01 T01620006  RH  035%=      5-min Rain = 0
KCR2 190033Z 34019G24KT 16/01 A2984 RMK A01 T01610005  RH  035%=      5-min Rain = 0
KCR2 190034Z 34019G24KT 16/01 A2984 RMK A01 T01610005  RH  035%=      5-min Rain = 0
KCR2 190035Z 34019KT 16/00 A2984 RMK A01 T01620004  RH  034%=      5-min Rain = 0
KCR2 190036Z 34020G25KT 16/00 A2984 RMK A01 T01620003  RH  034%=      5-min Rain = 0
KCR2 190037Z 34015G20KT 16/00 A2984 RMK A01 T01620003  RH  034%=      5-min Rain = 0
KCR2 190038Z 33016KT 16/00 A2984 RMK A01 T01620003  RH  034%=      5-min Rain = 0
KCR2 190039Z 34016KT 16/00 A2984 RMK A01 T01610002  RH  034%=      5-min Rain = 0
KCR2 190040Z 33016KT 16/00 A2984 RMK A01 T01610002  RH  034%=      5-min Rain = 0
KCR2 190041Z 33013KT 16/00 A2984 RMK A01 T01610002  RH  034%=      5-min Rain = 0
KCR2 190042Z 33016G22KT 16/00 A2984 RMK A01 T01600001  RH  034%=      5-min Rain = 0
KCR2 190043Z 33017KT 16/00 A2984 RMK A01 T01600001  RH  034%=      5-min Rain = 0
KCR2 190044Z 34014KT 16/00 A2984 RMK A01 T01600001  RH  034%=      5-min Rain = 0
KCR2 190045Z 33015KT 16/00 A2985 RMK A01 T01610001  RH  034%=      5-min Rain = 0
KCR2 190046Z 34016KT 16/00 A2985 RMK A01 T01600000  RH  034%=      5-min Rain = 0
KCR2 190047Z 33015KT 16/00 A2985 RMK A01 T01600000  RH  034%=      5-min Rain = 0
KCR2 190048Z 33013KT 16/00 A2985 RMK A01 T01600000  RH  034%=      5-min Rain = 0
KCR2 190049Z 33015KT 16/00 A2985 RMK A01 T016000-0  RH  034%=      5-min Rain = 0
KCR2 190050Z 33017KT 16/M00 A2985 RMK A01 T01591001  RH  034%=      5-min Rain = 0
KCR2 190051Z 34012KT 16/M00 A2985 RMK A01 T01591001  RH  033%=      5-min Rain = 0
KCR2 190052Z 34012KT 16/M00 A2985 RMK A01 T01591001  RH  033%=      5-min Rain = 0
KCR2 190053Z 33014KT 16/M00 A2985 RMK A01 T01581002  RH  034%=      5-min Rain = 0
KCR2 190054Z 34013KT 16/M00 A2985 RMK A01 T01581002  RH  034%=      5-min Rain = 0
KCR2 190055Z 34013KT 16/M00 A2985 RMK A01 T01581002  RH  033%=      5-min Rain = 0
KCR2 190056Z 34012KT 16/M00 A2985 RMK A01 T01581003  RH  034%=      5-min Rain = 0
KCR2 190057Z 33013KT 16/M00 A2985 RMK A01 T01571002  RH  034%=      5-min Rain = 0
KCR2 190058Z 34012KT 16/M00 A2985 RMK A01 T01571003  RH  034%=      5-min Rain = 0
KCR2 190059Z 34012G17KT 16/M00 A2985 RMK A01 T01561003  RH  034%=      5-min Rain = 0
KCR2 190100Z 33014KT 16/M00 A2985 RMK A01 T01561003  RH  034%=      5-min Rain = 0
KCR2 190101Z 33012KT 16/M00 A2985 RMK A01 T01561004  RH  034%=      5-min Rain = 0
KCR2 190102Z 34012KT 16/M00 A2985 RMK A01 T01561004  RH  034%=      5-min Rain = 0
KCR2 190103Z 33012KT 16/M00 A2985 RMK A01 T01561004  RH  033%=      5-min Rain = 0
KCR2 190104Z 33010G15KT 16/M01 A2985 RMK A01 T01561005  RH  033%=      5-min Rain = 0
KCR2 190105Z 33012KT 16/M00 A2985 RMK A01 T01551004  RH  034%=      5-min Rain = 0
KCR2 190106Z 33014KT 16/M01 A2985 RMK A01 T01551005  RH  034%=      5-min Rain = 0
KCR2 190107Z 33013KT 16/M01 A2985 RMK A01 T01551005  RH  033%=      5-min Rain = 0
KCR2 190108Z 33013KT 16/M01 A2985 RMK A01 T01551006  RH  033%=      5-min Rain = 0
KCR2 190109Z 33012KT 15/M01 A2985 RMK A01 T01541006  RH  033%=      5-min Rain = 0
KCR2 190110Z 33014KT 15/M01 A2985 RMK A01 T01541007  RH  033%=      5-min Rain = 0
KCR2 190111Z 33012G17KT 15/M01 A2985 RMK A01 T01541008  RH  033%=      5-min Rain = 0
KCR2 190112Z 33011KT 15/M01 A2985 RMK A01 T01541008  RH  033%=      5-min Rain = 0
KCR2 190113Z 33011KT 15/M01 A2985 RMK A01 T01531009  RH  033%=      5-min Rain = 0
KCR2 190114Z 33013KT 15/M01 A2986 RMK A01 T01521010  RH  033%=      5-min Rain = 0
KCR2 190115Z 33012G17KT 15/M01 A2986 RMK A01 T01531010  RH  033%=      5-min Rain = 0
KCR2 190116Z 33014KT 15/M01 A2986 RMK A01 T01521011  RH  033%=      5-min Rain = 0
KCR2 190117Z 34013KT 15/M01 A2986 RMK A01 T01531012  RH  032%=      5-min Rain = 0
KCR2 190118Z 33012KT 15/M01 A2986 RMK A01 T01531012  RH  032%=      5-min Rain = 0
KCR2 190119Z 33014KT 15/M01 A2986 RMK A01 T01531012  RH  032%=      5-min Rain = 0
KCR2 190120Z 33011KT 15/M01 A2986 RMK A01 T01531013  RH  032%=      5-min Rain = 0
KCR2 190121Z 33013KT 15/M01 A2986 RMK A01 T01521013  RH  032%=      5-min Rain = 0
KCR2 190122Z 33014KT 15/M01 A2986 RMK A01 T01521014  RH  032%=      5-min Rain = 0
KCR2 190123Z 33017KT 15/M02 A2986 RMK A01 T01521015  RH  032%=      5-min Rain = 0
KCR2 190124Z 33014KT 15/M02 A2986 RMK A01 T01531016  RH  031%=      5-min Rain = 0
KCR2 190125Z 33015KT 15/M02 A2986 RMK A01 T01531016  RH  031%=      5-min Rain = 0
KCR2 190126Z 33012KT 15/M02 A2986 RMK A01 T01531016  RH  031%=      5-min Rain = 0
KCR2 190127Z 33015KT 15/M02 A2986 RMK A01 T01521017  RH  031%=      5-min Rain = 0
KCR2 190128Z 33014KT 15/M02 A2986 RMK A01 T01521018  RH  031%=      5-min Rain = 0
KCR2 190129Z 33014KT 15/M02 A2987 RMK A01 T01521019  RH  031%=      5-min Rain = 0
KCR2 190130Z 33012KT 15/M02 A2987 RMK A01 T01531019  RH  031%=      5-min Rain = 0
KCR2 190131Z 33013KT 15/M02 A2987 RMK A01 T01521019  RH  031%=      5-min Rain = 0
KCR2 190132Z 33012KT 15/M02 A2987 RMK A01 T01511020  RH  031%=      5-min Rain = 0
KCR2 190133Z 33014KT 15/M02 A2987 RMK A01 T01511021  RH  031%=      5-min Rain = 0
KCR2 190134Z 33014KT 15/M02 A2987 RMK A01 T01511021  RH  030%=      5-min Rain = 0
KCR2 190135Z 33017KT 15/M02 A2987 RMK A01 T01511024  RH  030%=      5-min Rain = 0
KCR2 190136Z 33013KT 15/M03 A2987 RMK A01 T01521025  RH  030%=      5-min Rain = 0
KCR2 190137Z 33015KT 15/M03 A2987 RMK A01 T01521025  RH  029%=      5-min Rain = 0
KCR2 190138Z 33015KT 15/M03 A2987 RMK A01 T01521027  RH  029%=      5-min Rain = 0
KCR2 190139Z 33016KT 15/M03 A2987 RMK A01 T01521028  RH  029%=      5-min Rain = 0
KCR2 190140Z 33016KT 15/M03 A2987 RMK A01 T01521029  RH  029%=      5-min Rain = 0
KCR2 190141Z 33016G21KT 15/M03 A2987 RMK A01 T01521031  RH  028%=      5-min Rain = 0
KCR2 190142Z 33015KT 15/M03 A2987 RMK A01 T01531031  RH  028%=      5-min Rain = 0
KCR2 190143Z 33014KT 15/M03 A2988 RMK A01 T01521031  RH  028%=      5-min Rain = 0
KCR2 190144Z 33015KT 15/M03 A2988 RMK A01 T01511033  RH  028%=      5-min Rain = 0
KCR2 190145Z 33017KT 15/M04 A2988 RMK A01 T01511036  RH  027%=      5-min Rain = 0
KCR2 190146Z 33015KT 15/M04 A2988 RMK A01 T01511037  RH  027%=      5-min Rain = 0
KCR2 190147Z 32016KT 15/M04 A2988 RMK A01 T01521038  RH  027%=      5-min Rain = 0
KCR2 190148Z 33016KT 15/M04 A2988 RMK A01 T01521040  RH  026%=      5-min Rain = 0
KCR2 190149Z 33016KT 15/M04 A2988 RMK A01 T01531041  RH  026%=      5-min Rain = 0
KCR2 190150Z 33016KT 15/M04 A2988 RMK A01 T01531042  RH  026%=      5-min Rain = 0
KCR2 190151Z 33016G21KT 15/M04 A2988 RMK A01 T01521043  RH  026%=      5-min Rain = 0
KCR2 190152Z 33014G19KT 15/M04 A2988 RMK A01 T01521044  RH  026%=      5-min Rain = 0
KCR2 190153Z 33016KT 15/M05 A2988 RMK A01 T01521045  RH  025%=      5-min Rain = 0
KCR2 190154Z 33018G24KT 15/M05 A2988 RMK A01 T01521047  RH  025%=      5-min Rain = 0
KCR2 190155Z 32015KT 15/M05 A2989 RMK A01 T01541048  RH  025%=      5-min Rain = 0
KCR2 190156Z 33016G21KT 15/M05 A2989 RMK A01 T01531049  RH  024%=      5-min Rain = 0
KCR2 190157Z 33015KT 15/M05 A2989 RMK A01 T01541051  RH  024%=      5-min Rain = 0
KCR2 190158Z 33019KT 15/M05 A2989 RMK A01 T01541052  RH  024%=      5-min Rain = 0
KCR2 190159Z 33017KT 15/M06 A2989 RMK A01 T01541055  RH  023%=      5-min Rain = 0
KCR2 190200Z 33018G23KT 16/M06 A2989 RMK A01 T01551056  RH  023%=      5-min Rain = 0
KCR2 190201Z 33017KT 16/M06 A2989 RMK A01 T01561057  RH  023%=      5-min Rain = 0
KCR2 190202Z 33018KT 16/M06 A2989 RMK A01 T01561058  RH  022%=      5-min Rain = 0
KCR2 190203Z 33019KT 16/M06 A299 RMK A01 T01561059  RH  022%=      5-min Rain = 0
KCR2 190204Z 33017G23KT 16/M06 A299 RMK A01 T01571061  RH  022%=      5-min Rain = 0
KCR2 190205Z 32017KT 16/M06 A299 RMK A01 T01571061  RH  022%=      5-min Rain = 0
KCR2 190206Z 32015KT 16/M06 A299 RMK A01 T01571061  RH  022%=      5-min Rain = 0
KCR2 190207Z 33015KT 16/M06 A299 RMK A01 T01551062  RH  022%=      5-min Rain = 0
KCR2 190208Z 33015G20KT 16/M06 A299 RMK A01 T01551063  RH  022%=      5-min Rain = 0
KCR2 190209Z 33018G25KT 16/M07 A299 RMK A01 T01551065  RH  021%=      5-min Rain = 0
KCR2 190210Z 33020G25KT 16/M07 A299 RMK A01 T01561067  RH  021%=      5-min Rain = 0
KCR2 190211Z 33021G28KT 16/M07 A299 RMK A01 T01581068  RH  021%=      5-min Rain = 0
KCR2 190212Z 33021G26KT 16/M07 A299 RMK A01 T01591070  RH  020%=      5-min Rain = 0
KCR2 190213Z 33019KT 16/M07 A299 RMK A01 T01601070  RH  020%=      5-min Rain = 0
KCR2 190214Z 33019G24KT 16/M07 A2991 RMK A01 T01601070  RH  020%=      5-min Rain = 0
KCR2 190215Z 33018G23KT 16/M07 A2991 RMK A01 T01601070  RH  020%=      5-min Rain = 0
KCR2 190216Z 33017KT 16/M07 A2991 RMK A01 T01601070  RH  020%=      5-min Rain = 0
KCR2 190217Z 33020KT 16/M07 A2991 RMK A01 T01601071  RH  020%=      5-min Rain = 0
KCR2 190218Z 33017G23KT 16/M07 A2991 RMK A01 T01601071  RH  020%=      5-min Rain = 0
KCR2 190219Z 33019G26KT 16/M07 A2991 RMK A01 T01601072  RH  020%=      5-min Rain = 0
KCR2 190220Z 33017KT 16/M07 A2991 RMK A01 T01611072  RH  020%=      5-min Rain = 0
KCR2 190221Z 33017G22KT 16/M07 A2991 RMK A01 T01611072  RH  020%=      5-min Rain = 0
KCR2 190222Z 33018G23KT 16/M07 A2991 RMK A01 T01611072  RH  019%=      5-min Rain = 0
KCR2 190223Z 33017KT 16/M07 A2991 RMK A01 T01611072  RH  019%=      5-min Rain = 0
KCR2 190224Z 33020G25KT 16/M07 A2991 RMK A01 T01611072  RH  019%=      5-min Rain = 0
KCR2 190225Z 33017G23KT 16/M07 A2991 RMK A01 T01621072  RH  019%=      5-min Rain = 0
KCR2 190226Z 33021G27KT 16/M07 A2991 RMK A01 T01621072  RH  019%=      5-min Rain = 0
KCR2 190227Z 33021G27KT 16/M07 A2991 RMK A01 T01621072  RH  019%=      5-min Rain = 0
KCR2 190228Z 32016G22KT 16/M07 A2991 RMK A01 T01621071  RH  019%=      5-min Rain = 0
KCR2 190229Z 33015G21KT 16/M07 A2991 RMK A01 T01621070  RH  020%=      5-min Rain = 0
KCR2 190230Z 33017KT 16/M07 A2991 RMK A01 T01611069  RH  020%=      5-min Rain = 0
KCR2 190231Z 33016G22KT 16/M07 A2991 RMK A01 T01611070  RH  020%=      5-min Rain = 0
KCR2 190232Z 33015G20KT 16/M07 A2991 RMK A01 T01611069  RH  020%=      5-min Rain = 0
KCR2 190233Z 33019KT 16/M07 A2991 RMK A01 T01611068  RH  020%=      5-min Rain = 0
KCR2 190234Z 33020KT 16/M07 A2991 RMK A01 T01611069  RH  020%=      5-min Rain = 0
KCR2 190235Z 32017KT 16/M07 A2992 RMK A01 T01621069  RH  020%=      5-min Rain = 0
KCR2 190236Z 33017KT 16/M07 A2992 RMK A01 T01621069  RH  020%=      5-min Rain = 0
KCR2 190237Z 33016KT 16/M07 A2992 RMK A01 T01621069  RH  020%=      5-min Rain = 0
KCR2 190238Z 33019KT 16/M07 A2992 RMK A01 T01621069  RH  020%=      5-min Rain = 0
KCR2 190239Z 34023G30KT 16/M07 A2991 RMK A01 T01611068  RH  020%=      5-min Rain = 0
KCR2 190240Z 33020KT 16/M07 A2991 RMK A01 T01621068  RH  020%=      5-min Rain = 0
KCR2 190241Z 33017KT 16/M07 A2992 RMK A01 T01621068  RH  020%=      5-min Rain = 0
KCR2 190242Z 33018G23KT 16/M07 A2992 RMK A01 T01621068  RH  020%=      5-min Rain = 0
KCR2 190243Z 33022KT 16/M07 A2992 RMK A01 T01611068  RH  020%=      5-min Rain = 0
KCR2 190244Z 33019G25KT 16/M07 A2992 RMK A01 T01621067  RH  020%=      5-min Rain = 0
KCR2 190245Z 33017KT 16/M07 A2992 RMK A01 T01611066  RH  020%=      5-min Rain = 0
KCR2 190246Z 33019KT 16/M07 A2992 RMK A01 T01611065  RH  021%=      5-min Rain = 0
KCR2 190247Z 33019KT 16/M07 A2992 RMK A01 T01611065  RH  021%=      5-min Rain = 0
KCR2 190248Z 33019G27KT 16/M06 A2992 RMK A01 T01611064  RH  021%=      5-min Rain = 0
KCR2 190249Z 33020KT 16/M06 A2992 RMK A01 T01611063  RH  021%=      5-min Rain = 0
KCR2 190250Z 33020KT 16/M06 A2992 RMK A01 T01611063  RH  021%=      5-min Rain = 0
KCR2 190251Z 32022G27KT 16/M06 A2992 RMK A01 T01611062  RH  021%=      5-min Rain = 0
KCR2 190252Z 33021G26KT 16/M06 A2992 RMK A01 T01611061  RH  021%=      5-min Rain = 0
KCR2 190253Z 33020KT 16/M06 A2992 RMK A01 T01611060  RH  021%=      5-min Rain = 0
KCR2 190254Z 32019G24KT 16/M06 A2992 RMK A01 T01611060  RH  021%=      5-min Rain = 0
KCR2 190255Z 32017KT 16/M06 A2992 RMK A01 T01611059  RH  022%=      5-min Rain = 0
KCR2 190256Z 32018G23KT 16/M06 A2993 RMK A01 T01601058  RH  022%=      5-min Rain = 0
KCR2 190257Z 32020KT 16/M06 A2993 RMK A01 T01601058  RH  022%=      5-min Rain = 0
KCR2 190258Z 33020G26KT 16/M06 A2993 RMK A01 T01601059  RH  022%=      5-min Rain = 0
KCR2 190259Z 33023KT 16/M06 A2993 RMK A01 T01601059  RH  022%=      5-min Rain = 0
KCR2 190300Z 32020G25KT 16/M06 A2993 RMK A01 T01611058  RH  022%=      5-min Rain = 0
KCR2 190301Z 32022G29KT 16/M06 A2993 RMK A01 T01611057  RH  022%=      5-min Rain = 0
KCR2 190302Z 32017G22KT 16/M06 A2993 RMK A01 T01601058  RH  022%=      5-min Rain = 0
KCR2 190303Z 32019KT 16/M06 A2993 RMK A01 T01601057  RH  022%=      5-min Rain = 0
KCR2 190304Z 32019G24KT 16/M06 A2993 RMK A01 T01601057  RH  022%=      5-min Rain = 0
KCR2 190305Z 32019G24KT 16/M06 A2994 RMK A01 T01601058  RH  022%=      5-min Rain = 0
KCR2 190306Z 32020KT 16/M06 A2994 RMK A01 T01601057  RH  022%=      5-min Rain = 0
KCR2 190307Z 32021KT 16/M06 A2994 RMK A01 T01601056  RH  022%=      5-min Rain = 0
KCR2 190308Z 33022G28KT 16/M06 A2994 RMK A01 T01601056  RH  022%=      5-min Rain = 0
KCR2 190309Z 32017G22KT 16/M06 A2994 RMK A01 T01601056  RH  022%=      5-min Rain = 0
KCR2 190310Z 32018G24KT 16/M06 A2994 RMK A01 T01601055  RH  022%=      5-min Rain = 0
KCR2 190311Z 32020KT 16/M06 A2994 RMK A01 T01591055  RH  022%=      5-min Rain = 0
KCR2 190312Z 32017KT 16/M06 A2994 RMK A01 T01591055  RH  022%=      5-min Rain = 0
KCR2 190313Z 32018G23KT 16/M06 A2994 RMK A01 T01591055  RH  023%=      5-min Rain = 0
KCR2 190314Z 32022KT 16/M05 A2994 RMK A01 T01591054  RH  023%=      5-min Rain = 0
KCR2 190315Z 32019G24KT 16/M05 A2994 RMK A01 T01591054  RH  023%=      5-min Rain = 0
KCR2 190316Z 32019G24KT 16/M05 A2994 RMK A01 T01591054  RH  023%=      5-min Rain = 0
KCR2 190317Z 32018G25KT 16/M05 A2994 RMK A01 T01591054  RH  023%=      5-min Rain = 0
KCR2 190318Z 32020KT 16/M06 A2994 RMK A01 T01581055  RH  023%=      5-min Rain = 0
KCR2 190319Z 32021KT 16/M06 A2995 RMK A01 T01591056  RH  022%=      5-min Rain = 0
KCR2 190320Z 32019G28KT 16/M06 A2995 RMK A01 T01591056  RH  022%=      5-min Rain = 0
KCR2 190321Z 32024G29KT 16/M06 A2995 RMK A01 T01591057  RH  022%=      5-min Rain = 0
KCR2 190322Z 32018KT 16/M06 A2995 RMK A01 T01601057  RH  022%=      5-min Rain = 0
KCR2 190323Z 31017G22KT 16/M06 A2995 RMK A01 T01601056  RH  022%=      5-min Rain = 0
KCR2 190324Z 32023KT 16/M06 A2995 RMK A01 T01591057  RH  022%=      5-min Rain = 0
KCR2 190325Z 32021KT 16/M06 A2995 RMK A01 T01591058  RH  022%=      5-min Rain = 0
KCR2 190326Z 32022G28KT 16/M06 A2996 RMK A01 T01591060  RH  022%=      5-min Rain = 0
KCR2 190327Z 32023G29KT 16/M06 A2996 RMK A01 T01591060  RH  022%=      5-min Rain = 0
KCR2 190328Z 31023G30KT 16/M06 A2995 RMK A01 T01591063  RH  021%=      5-min Rain = 0
KCR2 190329Z 31020G25KT 16/M06 A2996 RMK A01 T01601063  RH  021%=      5-min Rain = 0
KCR2 190330Z 31023KT 16/M06 A2995 RMK A01 T01591063  RH  021%=      5-min Rain = 0
KCR2 190331Z 31020G26KT 16/M07 A2995 RMK A01 T01591065  RH  021%=      5-min Rain = 0
KCR2 190332Z 32019KT 16/M07 A2995 RMK A01 T01591065  RH  021%=      5-min Rain = 0
KCR2 190333Z 32018KT 16/M07 A2995 RMK A01 T01591065  RH  021%=      5-min Rain = 0
KCR2 190334Z 32016KT 16/M07 A2995 RMK A01 T01581065  RH  021%=      5-min Rain = 0
KCR2 190335Z 32013KT 16/M07 A2995 RMK A01 T01571065  RH  021%=      5-min Rain = 0
KCR2 190336Z 32018G25KT 16/M06 A2996 RMK A01 T01571064  RH  021%=      5-min Rain = 0
KCR2 190337Z 32020G25KT 16/M07 A2996 RMK A01 T01571065  RH  021%=      5-min Rain = 0
KCR2 190338Z 32024G29KT 16/M07 A2996 RMK A01 T01571065  RH  021%=      5-min Rain = 0
KCR2 190339Z 31023G31KT 16/M07 A2996 RMK A01 T01581065  RH  021%=      5-min Rain = 0
KCR2 190340Z 32018G23KT 16/M07 A2996 RMK A01 T01581065  RH  021%=      5-min Rain = 0
KCR2 190341Z 33022G31KT 16/M06 A2996 RMK A01 T01581064  RH  021%=      5-min Rain = 0
KCR2 190342Z 33022G27KT 16/M06 A2997 RMK A01 T01571064  RH  021%=      5-min Rain = 0
KCR2 190343Z 33017G22KT 16/M06 A2997 RMK A01 T01571064  RH  021%=      5-min Rain = 0
KCR2 190344Z 32019KT 16/M06 A2997 RMK A01 T01571063  RH  021%=      5-min Rain = 0
KCR2 190345Z 33020KT 16/M06 A2997 RMK A01 T01561063  RH  022%=      5-min Rain = 0
KCR2 190346Z 33018G24KT 16/M06 A2997 RMK A01 T01561063  RH  022%=      5-min Rain = 0
KCR2 190347Z 33019G25KT 16/M06 A2997 RMK A01 T01561061  RH  022%=      5-min Rain = 0
KCR2 190348Z 32022G27KT 16/M06 A2997 RMK A01 T01551063  RH  022%=      5-min Rain = 0
KCR2 190349Z 33018G23KT 16/M06 A2997 RMK A01 T01551062  RH  022%=      5-min Rain = 0
KCR2 190350Z 34024G30KT 16/M06 A2997 RMK A01 T01551062  RH  022%=      5-min Rain = 0
KCR2 190351Z 34024G31KT 16/M06 A2997 RMK A01 T01551063  RH  022%=      5-min Rain = 0
KCR2 190352Z 33027G35KT 16/M06 A2997 RMK A01 T01551064  RH  022%=      5-min Rain = 0
KCR2 190353Z 33022G28KT 16/M07 A2996 RMK A01 T01551065  RH  021%=      5-min Rain = 0
KCR2 190354Z 34027G37KT 16/M07 A2996 RMK A01 T01551066  RH  021%=      5-min Rain = 0
KCR2 190355Z 34027G34KT 16/M07 A2996 RMK A01 T01551068  RH  021%=      5-min Rain = 0
KCR2 190356Z 34022G28KT 16/M07 A2996 RMK A01 T01551069  RH  021%=      5-min Rain = 0
KCR2 190357Z 33023G30KT 15/M07 A2996 RMK A01 T01541070  RH  021%=      5-min Rain = 0
KCR2 190358Z 34021G27KT 15/M07 A2996 RMK A01 T01541071  RH  021%=      5-min Rain = 0
KCR2 190359Z 33017G26KT 15/M07 A2996 RMK A01 T01531069  RH  021%=      5-min Rain = 0
KCR2 190400Z 33017G23KT 15/M07 A2996 RMK A01 T01521068  RH  021%=      5-min Rain = 0
KCR2 190401Z 33023G31KT 15/M07 A2996 RMK A01 T01511068  RH  021%=      5-min Rain = 0
KCR2 190402Z 33024KT 15/M07 A2997 RMK A01 T01511070  RH  021%=      5-min Rain = 0
KCR2 190403Z 33024G31KT 15/M07 A2997 RMK A01 T01521072  RH  021%=      5-min Rain = 0
KCR2 190404Z 32025G32KT 15/M07 A2997 RMK A01 T01521074  RH  020%=      5-min Rain = 0
KCR2 190405Z 33020G25KT 15/M07 A2997 RMK A01 T01521073  RH  020%=      5-min Rain = 0
KCR2 190406Z 33023G29KT 15/M07 A2997 RMK A01 T01511074  RH  020%=      5-min Rain = 0
KCR2 190407Z 33025KT 15/M08 A2998 RMK A01 T01521075  RH  020%=      5-min Rain = 0
KCR2 190408Z 33022G29KT 15/M08 A2997 RMK A01 T01511076  RH  020%=      5-min Rain = 0
KCR2 190409Z 33022KT 15/M08 A2998 RMK A01 T01511077  RH  020%=      5-min Rain = 0
KCR2 190410Z 33018G25KT 15/M08 A2998 RMK A01 T01511077  RH  020%=      5-min Rain = 0
KCR2 190411Z 32021G30KT 15/M08 A2998 RMK A01 T01501076  RH  020%=      5-min Rain = 0
KCR2 190412Z 33027G33KT 15/M07 A2998 RMK A01 T01501074  RH  021%=      5-min Rain = 0
KCR2 190413Z 33026G34KT 15/M07 A2998 RMK A01 T01501073  RH  021%=      5-min Rain = 0
KCR2 190414Z 33024G35KT 15/M07 A2998 RMK A01 T01501072  RH  021%=      5-min Rain = 0
KCR2 190415Z 33026G31KT 15/M07 A2998 RMK A01 T01491071  RH  021%=      5-min Rain = 0
KCR2 190416Z 33025G30KT 15/M07 A2998 RMK A01 T01491068  RH  022%=      5-min Rain = 0
KCR2 190417Z 33021KT 15/M07 A2998 RMK A01 T01491067  RH  022%=      5-min Rain = 0
KCR2 190418Z 33021G32KT 15/M07 A2998 RMK A01 T01481067  RH  022%=      5-min Rain = 0
KCR2 190419Z 32023KT 15/M07 A2998 RMK A01 T01471066  RH  022%=      5-min Rain = 0
KCR2 190420Z 32021G26KT 15/M06 A2999 RMK A01 T01471063  RH  023%=      5-min Rain = 0
KCR2 190421Z 33021G26KT 15/M06 A2999 RMK A01 T01461062  RH  023%=      5-min Rain = 0
KCR2 190422Z 33022G29KT 15/M06 A2999 RMK A01 T01461061  RH  023%=      5-min Rain = 0
KCR2 190423Z 33022G28KT 15/M06 A2999 RMK A01 T01461061  RH  023%=      5-min Rain = 0
KCR2 190424Z 32024G29KT 15/M06 A2999 RMK A01 T01461060  RH  023%=      5-min Rain = 0
KCR2 190425Z 33023KT 15/M06 A2999 RMK A01 T01461061  RH  023%=      5-min Rain = 0
KCR2 190426Z 33028G35KT 15/M06 A2999 RMK A01 T01461062  RH  023%=      5-min Rain = 0
KCR2 190427Z 33026G34KT 15/M06 A2999 RMK A01 T01461062  RH  023%=      5-min Rain = 0
KCR2 190428Z 32022KT 15/M06 A30 RMK A01 T01461061  RH  023%=      5-min Rain = 0
KCR2 190429Z 32022G27KT 15/M06 A30 RMK A01 T01461060  RH  024%=      5-min Rain = 0
KCR2 190430Z 32021KT 15/M06 A30 RMK A01 T01451059  RH  024%=      5-min Rain = 0
KCR2 190431Z 32018KT 15/M06 A30 RMK A01 T01451058  RH  024%=      5-min Rain = 0
KCR2 190432Z 32020KT 14/M06 A3001 RMK A01 T01441058  RH  024%=      5-min Rain = 0
KCR2 190433Z 32019KT 14/M06 A3001 RMK A01 T01441057  RH  024%=      5-min Rain = 0
KCR2 190434Z 32017KT 14/M06 A3001 RMK A01 T01441057  RH  024%=      5-min Rain = 0
KCR2 190435Z 32020KT 14/M06 A3001 RMK A01 T01431057  RH  025%=      5-min Rain = 0
KCR2 190436Z 32018G23KT 14/M06 A3001 RMK A01 T01431058  RH  025%=      5-min Rain = 0
KCR2 190437Z 32022G28KT 14/M06 A3001 RMK A01 T01421058  RH  024%=      5-min Rain = 0
KCR2 190438Z 31024G29KT 14/M06 A3001 RMK A01 T01421059  RH  024%=      5-min Rain = 0
KCR2 190439Z 31023G31KT 14/M06 A3001 RMK A01 T01421059  RH  024%=      5-min Rain = 0
KCR2 190440Z 31027G34KT 14/M06 A30 RMK A01 T01411059  RH  024%=      5-min Rain = 0
KCR2 190441Z 32025G32KT 14/M06 A30 RMK A01 T01411060  RH  024%=      5-min Rain = 0
KCR2 190442Z 32020G28KT 14/M06 A30 RMK A01 T01411060  RH  024%=      5-min Rain = 0
KCR2 190443Z 32023KT 14/M06 A30 RMK A01 T01401060  RH  025%=      5-min Rain = 0
KCR2 190444Z 32021G27KT 14/M06 A30 RMK A01 T01401060  RH  025%=      5-min Rain = 0
KCR2 190445Z 33017G22KT 14/M06 A30 RMK A01 T01391060  RH  025%=      5-min Rain = 0
KCR2 190446Z 33019G26KT 14/M06 A30 RMK A01 T01381060  RH  025%=      5-min Rain = 0
KCR2 190447Z 32018G24KT 14/M06 A30 RMK A01 T01381060  RH  025%=      5-min Rain = 0
KCR2 190448Z 33022G27KT 14/M06 A30 RMK A01 T01381060  RH  025%=      5-min Rain = 0
KCR2 190449Z 32020KT 14/M06 A3001 RMK A01 T01381060  RH  025%=      5-min Rain = 0
KCR2 190450Z 32019G24KT 14/M06 A3001 RMK A01 T01381060  RH  025%=      5-min Rain = 0
KCR2 190451Z 32021KT 14/M06 A3001 RMK A01 T01371060  RH  025%=      5-min Rain = 0
KCR2 190452Z 32020G26KT 14/M06 A3002 RMK A01 T01371060  RH  025%=      5-min Rain = 0
KCR2 190453Z 32019KT 14/M06 A3002 RMK A01 T01361060  RH  025%=      5-min Rain = 0
KCR2 190454Z 33019G25KT 14/M06 A3002 RMK A01 T01361059  RH  025%=      5-min Rain = 0
KCR2 190455Z 32018KT 14/M06 A3002 RMK A01 T01361059  RH  025%=      5-min Rain = 0
KCR2 190456Z 32018KT 14/M06 A3002 RMK A01 T01351060  RH  025%=      5-min Rain = 0
KCR2 190457Z 32018G25KT 14/M06 A3003 RMK A01 T01351059  RH  025%=      5-min Rain = 0
KCR2 190458Z 33021G26KT 13/M06 A3003 RMK A01 T01341059  RH  026%=      5-min Rain = 0
KCR2 190459Z 32016KT 13/M06 A3003 RMK A01 T01341059  RH  026%=      5-min Rain = 0
KCR2 190500Z 32017G22KT 13/M06 A3004 RMK A01 T01341059  RH  026%=      5-min Rain = 0
KCR2 190501Z 33019KT 13/M06 A3004 RMK A01 T01331059  RH  026%=      5-min Rain = 0
KCR2 190502Z 33016KT 13/M06 A3004 RMK A01 T01331058  RH  026%=      5-min Rain = 0
KCR2 190503Z 34020G28KT 13/M06 A3005 RMK A01 T01331057  RH  026%=      5-min Rain = 0
KCR2 190504Z 34021KT 13/M05 A3005 RMK A01 T01321051  RH  028%=      5-min Rain = 0
KCR2 190505Z 34020G26KT 13/M05 A3005 RMK A01 T01311045  RH  029%=      5-min Rain = 0
KCR2 190506Z 34024G33KT 13/M04 A3005 RMK A01 T01301035  RH  032%=      5-min Rain = 0
KCR2 190507Z 35023G29KT 13/M02 A3005 RMK A01 T01271021  RH  036%=      5-min Rain = 0
KCR2 190508Z 35021KT 13/M02 A3006 RMK A01 T01251018  RH  037%=      5-min Rain = 0
KCR2 190509Z 34024G29KT 12/M01 A3006 RMK A01 T01241013  RH  039%=      5-min Rain = 0
KCR2 190510Z 35022G27KT 12/M01 A3006 RMK A01 T01231009  RH  040%=      5-min Rain = 0
KCR2 190511Z 35016G24KT 12/M01 A3006 RMK A01 T01221008  RH  041%=      5-min Rain = 0
KCR2 190512Z 35022KT 12/M00 A3006 RMK A01 T01201004  RH  042%=      5-min Rain = 0
KCR2 190513Z 35020KT 12/00 A3006 RMK A01 T01190000  RH  044%=      5-min Rain = 0
KCR2 190514Z 35020KT 12/00 A3006 RMK A01 T01170002  RH  045%=      5-min Rain = 0
KCR2 190515Z 34022G27KT 12/00 A3006 RMK A01 T01160004  RH  046%=      5-min Rain = 0
KCR2 190516Z 35017KT 12/00 A3006 RMK A01 T01150004  RH  046%=      5-min Rain = 0
KCR2 190517Z 34018G23KT 12/01 A3006 RMK A01 T01150005  RH  047%=      5-min Rain = 0
KCR2 190518Z 35019G27KT 11/01 A3006 RMK A01 T01140005  RH  047%=      5-min Rain = 0
KCR2 190519Z 35022G27KT 11/01 A3007 RMK A01 T01130006  RH  048%=      5-min Rain = 0
KCR2 190520Z 34020G26KT 11/01 A3007 RMK A01 T01120006  RH  048%=      5-min Rain = 0
KCR2 190521Z 35017G22KT 11/01 A3007 RMK A01 T01120007  RH  048%=      5-min Rain = 0
KCR2 190522Z 35017G22KT 11/01 A3007 RMK A01 T01110007  RH  049%=      5-min Rain = 0
KCR2 190523Z 35022G30KT 11/01 A3007 RMK A01 T01100008  RH  049%=      5-min Rain = 0
KCR2 190524Z 33023G29KT 11/01 A3007 RMK A01 T01100009  RH  049%=      5-min Rain = 0
KCR2 190525Z 35019KT 11/01 A3007 RMK A01 T01100008  RH  050%=      5-min Rain = 0
KCR2 190526Z 34023G30KT 11/01 A3007 RMK A01 T01090009  RH  050%=      5-min Rain = 0
KCR2 190527Z 34018G24KT 11/01 A3007 RMK A01 T01090009  RH  050%=      5-min Rain = 0
KCR2 190528Z 34020G25KT 11/01 A3007 RMK A01 T01080010  RH  051%=      5-min Rain = 0
KCR2 190529Z 34018G23KT 11/01 A3007 RMK A01 T01070010  RH  051%=      5-min Rain = 0
KCR2 190530Z 34017G22KT 11/01 A3007 RMK A01 T01070010  RH  051%=      5-min Rain = 0
KCR2 190531Z 34020KT 11/01 A3007 RMK A01 T01060011  RH  052%=      5-min Rain = 0
KCR2 190532Z 34019KT 11/01 A3007 RMK A01 T01060011  RH  052%=      5-min Rain = 0
KCR2 190533Z 34017KT 11/01 A3007 RMK A01 T01060011  RH  052%=      5-min Rain = 0
KCR2 190534Z 34017KT 11/01 A3007 RMK A01 T01060012  RH  052%=      5-min Rain = 0
KCR2 190535Z 34017KT 11/01 A3007 RMK A01 T01050011  RH  052%=      5-min Rain = 0
KCR2 190536Z 35019KT 11/01 A3007 RMK A01 T01050012  RH  052%=      5-min Rain = 0
KCR2 190537Z 35017KT 11/01 A3008 RMK A01 T01050012  RH  052%=      5-min Rain = 0
KCR2 190538Z 34019KT 11/01 A3008 RMK A01 T01050012  RH  053%=      5-min Rain = 0
KCR2 190539Z 35016G21KT 10/01 A3008 RMK A01 T01040012  RH  053%=      5-min Rain = 0
KCR2 190540Z 35013KT 10/01 A3008 RMK A01 T01040012  RH  053%=      5-min Rain = 0
KCR2 190541Z 34012KT 10/01 A3008 RMK A01 T01040012  RH  053%=      5-min Rain = 0
KCR2 190542Z 35017G22KT 10/01 A3008 RMK A01 T01030012  RH  053%=      5-min Rain = 0
KCR2 190543Z 35018KT 10/01 A3008 RMK A01 T01030012  RH  053%=      5-min Rain = 0
KCR2 190544Z 35014KT 10/01 A3008 RMK A01 T01030012  RH  053%=      5-min Rain = 0
KCR2 190545Z 34016G21KT 10/01 A3008 RMK A01 T01030012  RH  053%=      5-min Rain = 0
KCR2 190546Z 35016KT 10/01 A3008 RMK A01 T01020012  RH  053%=      5-min Rain = 0
KCR2 190547Z 34015KT 10/01 A3008 RMK A01 T01020012  RH  053%=      5-min Rain = 0
KCR2 190548Z 35017KT 10/01 A3008 RMK A01 T01020012  RH  054%=      5-min Rain = 0
KCR2 190549Z 34013KT 10/01 A3009 RMK A01 T01010012  RH  054%=      5-min Rain = 0
KCR2 190550Z 34016KT 10/01 A3009 RMK A01 T01010012  RH  054%=      5-min Rain = 0
KCR2 190551Z 34014G21KT 10/01 A3009 RMK A01 T01000011  RH  054%=      5-min Rain = 0
KCR2 190552Z 35015KT 10/01 A3009 RMK A01 T01000011  RH  054%=      5-min Rain = 0
KCR2 190553Z 35018KT 10/01 A3009 RMK A01 T00990011  RH  054%=      5-min Rain = 0
KCR2 190554Z 34018KT 10/01 A3009 RMK A01 T00990011  RH  054%=      5-min Rain = 0
KCR2 190555Z 35017KT 10/01 A3009 RMK A01 T00990011  RH  054%=      5-min Rain = 0
KCR2 190556Z 34013KT 10/01 A3009 RMK A01 T01000012  RH  054%=      5-min Rain = 0
KCR2 190557Z 35013G19KT 10/01 A3009 RMK A01 T00980011  RH  055%=      5-min Rain = 0
KCR2 190558Z 35016KT 10/01 A3009 RMK A01 T00980011  RH  055%=      5-min Rain = 0
KCR2 190559Z 34017G23KT 10/01 A3009 RMK A01 T00980011  RH  055%=      5-min Rain = 0

Page generated in 0.077 seconds.